<?xml version="1.0" encoding="UTF-8" standalone="no" ?>
<gpx xmlns="http://www.topografix.com/GPX/1/1" xmlns:xsi="http://www.w3.org/2001/XMLSchema-instance" xsi:schemaLocation="http://www.topografix.com/GPX/1/1 http://www.topografix.com/GPX/1/1/gpx.xsd" version="1.1" creator="VisuGPX - https://www.visugpx.com">
  <metadata>
    <name>randonnée</name>
    <desc><![CDATA[dur dur avec la chaleur et col de la marfée]]></desc>
  </metadata>
  <trk>
    <name><![CDATA[Tracé actuel: 17 SEPT 2020 12:55]]></name>
    <trkseg>
      <trkpt lat="49.6345" lon="4.98047">
        <ele>190.48</ele>
        <time>2020-09-17T10:55:55Z</time>
      </trkpt>
      <trkpt lat="49.63449" lon="4.98048">
        <ele>191.92</ele>
        <time>2020-09-17T10:56:28Z</time>
      </trkpt>
      <trkpt lat="49.63447" lon="4.98048">
        <ele>190.48</ele>
        <time>2020-09-17T10:56:47Z</time>
      </trkpt>
      <trkpt lat="49.63443" lon="4.98043">
        <ele>188.56</ele>
        <time>2020-09-17T10:57:05Z</time>
      </trkpt>
      <trkpt lat="49.63445" lon="4.98053">
        <ele>187.11</ele>
        <time>2020-09-17T10:57:26Z</time>
      </trkpt>
      <trkpt lat="49.63442" lon="4.98052">
        <ele>186.15</ele>
        <time>2020-09-17T10:57:42Z</time>
      </trkpt>
      <trkpt lat="49.63432" lon="4.98033">
        <ele>180.87</ele>
        <time>2020-09-17T10:58:01Z</time>
      </trkpt>
      <trkpt lat="49.63419" lon="4.98013">
        <ele>176.54</ele>
        <time>2020-09-17T10:58:21Z</time>
      </trkpt>
      <trkpt lat="49.63411" lon="4.97999">
        <ele>178.94</ele>
        <time>2020-09-17T10:58:35Z</time>
      </trkpt>
      <trkpt lat="49.63402" lon="4.97981">
        <ele>176.06</ele>
        <time>2020-09-17T10:58:52Z</time>
      </trkpt>
      <trkpt lat="49.63397" lon="4.97967">
        <ele>168.85</ele>
        <time>2020-09-17T10:59:07Z</time>
      </trkpt>
      <trkpt lat="49.63392" lon="4.9794">
        <ele>166.45</ele>
        <time>2020-09-17T10:59:27Z</time>
      </trkpt>
      <trkpt lat="49.63398" lon="4.97934">
        <ele>163.56</ele>
        <time>2020-09-17T10:59:38Z</time>
      </trkpt>
      <trkpt lat="49.6341" lon="4.97921">
        <ele>163.08</ele>
        <time>2020-09-17T10:59:55Z</time>
      </trkpt>
      <trkpt lat="49.63426" lon="4.97908">
        <ele>164.52</ele>
        <time>2020-09-17T11:00:10Z</time>
      </trkpt>
      <trkpt lat="49.63445" lon="4.97897">
        <ele>165.48</ele>
        <time>2020-09-17T11:00:28Z</time>
      </trkpt>
      <trkpt lat="49.63461" lon="4.97884">
        <ele>164.52</ele>
        <time>2020-09-17T11:00:48Z</time>
      </trkpt>
      <trkpt lat="49.63474" lon="4.97864">
        <ele>164.52</ele>
        <time>2020-09-17T11:01:07Z</time>
      </trkpt>
      <trkpt lat="49.63487" lon="4.9784">
        <ele>165.96</ele>
        <time>2020-09-17T11:01:25Z</time>
      </trkpt>
      <trkpt lat="49.63501" lon="4.97825">
        <ele>166.93</ele>
        <time>2020-09-17T11:01:44Z</time>
      </trkpt>
      <trkpt lat="49.63517" lon="4.97803">
        <ele>167.89</ele>
        <time>2020-09-17T11:02:04Z</time>
      </trkpt>
      <trkpt lat="49.63531" lon="4.97787">
        <ele>165</ele>
        <time>2020-09-17T11:02:22Z</time>
      </trkpt>
      <trkpt lat="49.63536" lon="4.97784">
        <ele>165</ele>
        <time>2020-09-17T11:02:37Z</time>
      </trkpt>
      <trkpt lat="49.6354" lon="4.97782">
        <ele>165.96</ele>
        <time>2020-09-17T11:02:59Z</time>
      </trkpt>
      <trkpt lat="49.63545" lon="4.97771">
        <ele>165.96</ele>
        <time>2020-09-17T11:03:15Z</time>
      </trkpt>
      <trkpt lat="49.63556" lon="4.97746">
        <ele>164.52</ele>
        <time>2020-09-17T11:03:34Z</time>
      </trkpt>
      <trkpt lat="49.63567" lon="4.97726">
        <ele>160.68</ele>
        <time>2020-09-17T11:03:50Z</time>
      </trkpt>
      <trkpt lat="49.63579" lon="4.977">
        <ele>157.31</ele>
        <time>2020-09-17T11:04:11Z</time>
      </trkpt>
      <trkpt lat="49.63591" lon="4.9768">
        <ele>156.35</ele>
        <time>2020-09-17T11:04:28Z</time>
      </trkpt>
      <trkpt lat="49.63611" lon="4.97666">
        <ele>161.64</ele>
        <time>2020-09-17T11:04:47Z</time>
      </trkpt>
      <trkpt lat="49.63622" lon="4.97662">
        <ele>165.96</ele>
        <time>2020-09-17T11:05:05Z</time>
      </trkpt>
      <trkpt lat="49.63632" lon="4.97653">
        <ele>165.96</ele>
        <time>2020-09-17T11:05:22Z</time>
      </trkpt>
      <trkpt lat="49.63634" lon="4.97653">
        <ele>168.37</ele>
        <time>2020-09-17T11:05:52Z</time>
      </trkpt>
      <trkpt lat="49.63634" lon="4.97652">
        <ele>170.77</ele>
        <time>2020-09-17T11:06:27Z</time>
      </trkpt>
      <trkpt lat="49.63634" lon="4.97651">
        <ele>172.69</ele>
        <time>2020-09-17T11:06:57Z</time>
      </trkpt>
      <trkpt lat="49.63634" lon="4.9765">
        <ele>173.17</ele>
        <time>2020-09-17T11:07:28Z</time>
      </trkpt>
      <trkpt lat="49.63635" lon="4.9765">
        <ele>173.17</ele>
        <time>2020-09-17T11:07:59Z</time>
      </trkpt>
      <trkpt lat="49.63646" lon="4.9765">
        <ele>173.17</ele>
        <time>2020-09-17T11:08:17Z</time>
      </trkpt>
      <trkpt lat="49.63667" lon="4.97656">
        <ele>170.77</ele>
        <time>2020-09-17T11:08:36Z</time>
      </trkpt>
      <trkpt lat="49.63685" lon="4.9766">
        <ele>169.81</ele>
        <time>2020-09-17T11:08:55Z</time>
      </trkpt>
      <trkpt lat="49.6369" lon="4.97662">
        <ele>170.29</ele>
        <time>2020-09-17T11:09:00Z</time>
      </trkpt>
      <trkpt lat="49.63709" lon="4.97668">
        <ele>170.29</ele>
        <time>2020-09-17T11:09:20Z</time>
      </trkpt>
      <trkpt lat="49.63731" lon="4.97673">
        <ele>170.77</ele>
        <time>2020-09-17T11:09:40Z</time>
      </trkpt>
      <trkpt lat="49.63753" lon="4.97677">
        <ele>169.81</ele>
        <time>2020-09-17T11:10:01Z</time>
      </trkpt>
      <trkpt lat="49.63775" lon="4.97679">
        <ele>167.41</ele>
        <time>2020-09-17T11:10:22Z</time>
      </trkpt>
      <trkpt lat="49.63795" lon="4.97675">
        <ele>167.41</ele>
        <time>2020-09-17T11:10:41Z</time>
      </trkpt>
      <trkpt lat="49.63814" lon="4.97662">
        <ele>167.89</ele>
        <time>2020-09-17T11:11:01Z</time>
      </trkpt>
      <trkpt lat="49.63826" lon="4.97643">
        <ele>166.93</ele>
        <time>2020-09-17T11:11:19Z</time>
      </trkpt>
      <trkpt lat="49.63832" lon="4.97626">
        <ele>166.45</ele>
        <time>2020-09-17T11:11:31Z</time>
      </trkpt>
      <trkpt lat="49.63841" lon="4.97604">
        <ele>167.41</ele>
        <time>2020-09-17T11:11:47Z</time>
      </trkpt>
      <trkpt lat="49.63847" lon="4.9758">
        <ele>169.33</ele>
        <time>2020-09-17T11:12:08Z</time>
      </trkpt>
      <trkpt lat="49.63852" lon="4.97556">
        <ele>169.81</ele>
        <time>2020-09-17T11:12:24Z</time>
      </trkpt>
      <trkpt lat="49.63853" lon="4.9755">
        <ele>170.29</ele>
        <time>2020-09-17T11:12:27Z</time>
      </trkpt>
      <trkpt lat="49.63869" lon="4.97532">
        <ele>173.66</ele>
        <time>2020-09-17T11:12:47Z</time>
      </trkpt>
      <trkpt lat="49.63889" lon="4.97536">
        <ele>175.58</ele>
        <time>2020-09-17T11:13:08Z</time>
      </trkpt>
      <trkpt lat="49.63909" lon="4.9755">
        <ele>174.62</ele>
        <time>2020-09-17T11:13:29Z</time>
      </trkpt>
      <trkpt lat="49.63928" lon="4.97561">
        <ele>174.14</ele>
        <time>2020-09-17T11:13:48Z</time>
      </trkpt>
      <trkpt lat="49.63949" lon="4.97574">
        <ele>176.06</ele>
        <time>2020-09-17T11:14:08Z</time>
      </trkpt>
      <trkpt lat="49.63973" lon="4.97582">
        <ele>177.02</ele>
        <time>2020-09-17T11:14:30Z</time>
      </trkpt>
      <trkpt lat="49.63995" lon="4.97583">
        <ele>176.54</ele>
        <time>2020-09-17T11:14:50Z</time>
      </trkpt>
      <trkpt lat="49.64019" lon="4.97584">
        <ele>175.1</ele>
        <time>2020-09-17T11:15:12Z</time>
      </trkpt>
      <trkpt lat="49.64039" lon="4.97587">
        <ele>174.14</ele>
        <time>2020-09-17T11:15:31Z</time>
      </trkpt>
      <trkpt lat="49.64056" lon="4.97602">
        <ele>174.14</ele>
        <time>2020-09-17T11:15:49Z</time>
      </trkpt>
      <trkpt lat="49.64058" lon="4.97606">
        <ele>174.14</ele>
        <time>2020-09-17T11:15:52Z</time>
      </trkpt>
      <trkpt lat="49.6407" lon="4.97629">
        <ele>173.66</ele>
        <time>2020-09-17T11:16:09Z</time>
      </trkpt>
      <trkpt lat="49.64082" lon="4.97653">
        <ele>172.21</ele>
        <time>2020-09-17T11:16:27Z</time>
      </trkpt>
      <trkpt lat="49.64098" lon="4.97678">
        <ele>172.21</ele>
        <time>2020-09-17T11:16:48Z</time>
      </trkpt>
      <trkpt lat="49.64113" lon="4.97705">
        <ele>172.69</ele>
        <time>2020-09-17T11:17:09Z</time>
      </trkpt>
      <trkpt lat="49.64128" lon="4.97728">
        <ele>173.66</ele>
        <time>2020-09-17T11:17:28Z</time>
      </trkpt>
      <trkpt lat="49.64137" lon="4.97742">
        <ele>174.62</ele>
        <time>2020-09-17T11:17:47Z</time>
      </trkpt>
      <trkpt lat="49.6414" lon="4.97746">
        <ele>174.14</ele>
        <time>2020-09-17T11:18:03Z</time>
      </trkpt>
      <trkpt lat="49.64157" lon="4.97771">
        <ele>174.62</ele>
        <time>2020-09-17T11:18:23Z</time>
      </trkpt>
      <trkpt lat="49.64174" lon="4.97795">
        <ele>176.06</ele>
        <time>2020-09-17T11:18:44Z</time>
      </trkpt>
      <trkpt lat="49.6419" lon="4.97819">
        <ele>178.46</ele>
        <time>2020-09-17T11:19:03Z</time>
      </trkpt>
      <trkpt lat="49.64197" lon="4.97823">
        <ele>179.42</ele>
        <time>2020-09-17T11:19:11Z</time>
      </trkpt>
      <trkpt lat="49.64201" lon="4.97821">
        <ele>178.94</ele>
        <time>2020-09-17T11:19:15Z</time>
      </trkpt>
      <trkpt lat="49.64213" lon="4.97797">
        <ele>179.9</ele>
        <time>2020-09-17T11:19:34Z</time>
      </trkpt>
      <trkpt lat="49.64225" lon="4.97771">
        <ele>181.35</ele>
        <time>2020-09-17T11:19:53Z</time>
      </trkpt>
      <trkpt lat="49.64233" lon="4.97747">
        <ele>181.35</ele>
        <time>2020-09-17T11:20:11Z</time>
      </trkpt>
      <trkpt lat="49.64244" lon="4.97722">
        <ele>182.79</ele>
        <time>2020-09-17T11:20:29Z</time>
      </trkpt>
      <trkpt lat="49.64255" lon="4.97697">
        <ele>183.75</ele>
        <time>2020-09-17T11:20:49Z</time>
      </trkpt>
      <trkpt lat="49.64265" lon="4.97669">
        <ele>186.15</ele>
        <time>2020-09-17T11:21:08Z</time>
      </trkpt>
      <trkpt lat="49.64277" lon="4.97643">
        <ele>187.11</ele>
        <time>2020-09-17T11:21:28Z</time>
      </trkpt>
      <trkpt lat="49.6429" lon="4.97647">
        <ele>190.48</ele>
        <time>2020-09-17T11:21:44Z</time>
      </trkpt>
      <trkpt lat="49.64292" lon="4.97649">
        <ele>190.48</ele>
        <time>2020-09-17T11:21:47Z</time>
      </trkpt>
      <trkpt lat="49.6431" lon="4.97663">
        <ele>192.88</ele>
        <time>2020-09-17T11:22:06Z</time>
      </trkpt>
      <trkpt lat="49.64335" lon="4.97677">
        <ele>199.13</ele>
        <time>2020-09-17T11:22:29Z</time>
      </trkpt>
      <trkpt lat="49.64356" lon="4.97695">
        <ele>201.53</ele>
        <time>2020-09-17T11:22:51Z</time>
      </trkpt>
      <trkpt lat="49.64373" lon="4.97708">
        <ele>201.53</ele>
        <time>2020-09-17T11:23:10Z</time>
      </trkpt>
      <trkpt lat="49.6439" lon="4.97725">
        <ele>201.05</ele>
        <time>2020-09-17T11:23:29Z</time>
      </trkpt>
      <trkpt lat="49.64408" lon="4.9774">
        <ele>200.57</ele>
        <time>2020-09-17T11:23:49Z</time>
      </trkpt>
      <trkpt lat="49.64427" lon="4.97754">
        <ele>198.17</ele>
        <time>2020-09-17T11:24:09Z</time>
      </trkpt>
      <trkpt lat="49.64431" lon="4.97756">
        <ele>198.17</ele>
        <time>2020-09-17T11:24:13Z</time>
      </trkpt>
      <trkpt lat="49.64449" lon="4.97764">
        <ele>198.65</ele>
        <time>2020-09-17T11:24:31Z</time>
      </trkpt>
      <trkpt lat="49.64461" lon="4.97743">
        <ele>198.65</ele>
        <time>2020-09-17T11:24:48Z</time>
      </trkpt>
      <trkpt lat="49.64471" lon="4.97715">
        <ele>199.13</ele>
        <time>2020-09-17T11:25:08Z</time>
      </trkpt>
      <trkpt lat="49.64482" lon="4.97688">
        <ele>200.57</ele>
        <time>2020-09-17T11:25:28Z</time>
      </trkpt>
      <trkpt lat="49.64491" lon="4.97665">
        <ele>201.53</ele>
        <time>2020-09-17T11:25:45Z</time>
      </trkpt>
      <trkpt lat="49.64502" lon="4.97636">
        <ele>203.46</ele>
        <time>2020-09-17T11:26:05Z</time>
      </trkpt>
      <trkpt lat="49.64511" lon="4.97613">
        <ele>203.94</ele>
        <time>2020-09-17T11:26:23Z</time>
      </trkpt>
      <trkpt lat="49.64521" lon="4.97591">
        <ele>204.9</ele>
        <time>2020-09-17T11:26:39Z</time>
      </trkpt>
      <trkpt lat="49.64534" lon="4.97563">
        <ele>207.78</ele>
        <time>2020-09-17T11:26:58Z</time>
      </trkpt>
      <trkpt lat="49.64545" lon="4.97538">
        <ele>210.19</ele>
        <time>2020-09-17T11:27:16Z</time>
      </trkpt>
      <trkpt lat="49.64556" lon="4.97511">
        <ele>212.59</ele>
        <time>2020-09-17T11:27:35Z</time>
      </trkpt>
      <trkpt lat="49.64565" lon="4.9749">
        <ele>214.03</ele>
        <time>2020-09-17T11:27:53Z</time>
      </trkpt>
      <trkpt lat="49.64577" lon="4.97461">
        <ele>216.43</ele>
        <time>2020-09-17T11:28:14Z</time>
      </trkpt>
      <trkpt lat="49.64589" lon="4.97432">
        <ele>219.8</ele>
        <time>2020-09-17T11:28:35Z</time>
      </trkpt>
      <trkpt lat="49.646" lon="4.97406">
        <ele>223.16</ele>
        <time>2020-09-17T11:28:53Z</time>
      </trkpt>
      <trkpt lat="49.64608" lon="4.97384">
        <ele>226.05</ele>
        <time>2020-09-17T11:29:10Z</time>
      </trkpt>
      <trkpt lat="49.64618" lon="4.9736">
        <ele>227.97</ele>
        <time>2020-09-17T11:29:28Z</time>
      </trkpt>
      <trkpt lat="49.64629" lon="4.9733">
        <ele>229.41</ele>
        <time>2020-09-17T11:29:49Z</time>
      </trkpt>
      <trkpt lat="49.64641" lon="4.97303">
        <ele>231.81</ele>
        <time>2020-09-17T11:30:08Z</time>
      </trkpt>
      <trkpt lat="49.64651" lon="4.97279">
        <ele>233.74</ele>
        <time>2020-09-17T11:30:26Z</time>
      </trkpt>
      <trkpt lat="49.6466" lon="4.97253">
        <ele>236.14</ele>
        <time>2020-09-17T11:30:44Z</time>
      </trkpt>
      <trkpt lat="49.64672" lon="4.97222">
        <ele>238.06</ele>
        <time>2020-09-17T11:31:06Z</time>
      </trkpt>
      <trkpt lat="49.64682" lon="4.97194">
        <ele>240.47</ele>
        <time>2020-09-17T11:31:26Z</time>
      </trkpt>
      <trkpt lat="49.64689" lon="4.97185">
        <ele>241.91</ele>
        <time>2020-09-17T11:31:35Z</time>
      </trkpt>
      <trkpt lat="49.64705" lon="4.972">
        <ele>243.83</ele>
        <time>2020-09-17T11:31:53Z</time>
      </trkpt>
      <trkpt lat="49.6472" lon="4.97219">
        <ele>245.27</ele>
        <time>2020-09-17T11:32:11Z</time>
      </trkpt>
      <trkpt lat="49.64733" lon="4.97237">
        <ele>245.27</ele>
        <time>2020-09-17T11:32:28Z</time>
      </trkpt>
      <trkpt lat="49.64736" lon="4.97229">
        <ele>245.27</ele>
        <time>2020-09-17T11:32:34Z</time>
      </trkpt>
      <trkpt lat="49.64735" lon="4.97218">
        <ele>245.27</ele>
        <time>2020-09-17T11:32:41Z</time>
      </trkpt>
      <trkpt lat="49.64736" lon="4.97186">
        <ele>245.75</ele>
        <time>2020-09-17T11:33:00Z</time>
      </trkpt>
      <trkpt lat="49.6474" lon="4.97154">
        <ele>247.68</ele>
        <time>2020-09-17T11:33:20Z</time>
      </trkpt>
      <trkpt lat="49.64742" lon="4.97121">
        <ele>248.16</ele>
        <time>2020-09-17T11:33:39Z</time>
      </trkpt>
      <trkpt lat="49.64743" lon="4.9712">
        <ele>248.64</ele>
        <time>2020-09-17T11:33:40Z</time>
      </trkpt>
      <trkpt lat="49.64744" lon="4.97092">
        <ele>249.12</ele>
        <time>2020-09-17T11:33:58Z</time>
      </trkpt>
      <trkpt lat="49.64744" lon="4.97064">
        <ele>251.04</ele>
        <time>2020-09-17T11:34:15Z</time>
      </trkpt>
      <trkpt lat="49.64741" lon="4.97033">
        <ele>253.44</ele>
        <time>2020-09-17T11:34:34Z</time>
      </trkpt>
      <trkpt lat="49.64739" lon="4.97002">
        <ele>253.93</ele>
        <time>2020-09-17T11:34:54Z</time>
      </trkpt>
      <trkpt lat="49.64733" lon="4.96969">
        <ele>252.48</ele>
        <time>2020-09-17T11:35:14Z</time>
      </trkpt>
      <trkpt lat="49.64732" lon="4.96965">
        <ele>252</ele>
        <time>2020-09-17T11:35:17Z</time>
      </trkpt>
      <trkpt lat="49.64721" lon="4.96934">
        <ele>252.96</ele>
        <time>2020-09-17T11:35:37Z</time>
      </trkpt>
      <trkpt lat="49.64712" lon="4.96903">
        <ele>252.48</ele>
        <time>2020-09-17T11:35:58Z</time>
      </trkpt>
      <trkpt lat="49.64704" lon="4.96874">
        <ele>251.52</ele>
        <time>2020-09-17T11:36:18Z</time>
      </trkpt>
      <trkpt lat="49.64699" lon="4.96849">
        <ele>250.56</ele>
        <time>2020-09-17T11:36:37Z</time>
      </trkpt>
      <trkpt lat="49.64689" lon="4.96813">
        <ele>253.93</ele>
        <time>2020-09-17T11:36:56Z</time>
      </trkpt>
      <trkpt lat="49.64683" lon="4.96788">
        <ele>253.44</ele>
        <time>2020-09-17T11:37:16Z</time>
      </trkpt>
      <trkpt lat="49.64679" lon="4.9676">
        <ele>252.48</ele>
        <time>2020-09-17T11:37:37Z</time>
      </trkpt>
      <trkpt lat="49.64671" lon="4.96718">
        <ele>253.44</ele>
        <time>2020-09-17T11:37:59Z</time>
      </trkpt>
      <trkpt lat="49.64664" lon="4.96687">
        <ele>253.44</ele>
        <time>2020-09-17T11:38:17Z</time>
      </trkpt>
      <trkpt lat="49.64672" lon="4.96661">
        <ele>255.37</ele>
        <time>2020-09-17T11:38:35Z</time>
      </trkpt>
      <trkpt lat="49.64675" lon="4.96659">
        <ele>256.81</ele>
        <time>2020-09-17T11:38:37Z</time>
      </trkpt>
      <trkpt lat="49.64693" lon="4.96653">
        <ele>263.06</ele>
        <time>2020-09-17T11:38:55Z</time>
      </trkpt>
      <trkpt lat="49.64699" lon="4.96651">
        <ele>264.5</ele>
        <time>2020-09-17T11:39:00Z</time>
      </trkpt>
      <trkpt lat="49.64719" lon="4.96642">
        <ele>266.42</ele>
        <time>2020-09-17T11:39:20Z</time>
      </trkpt>
      <trkpt lat="49.64737" lon="4.96635">
        <ele>268.83</ele>
        <time>2020-09-17T11:39:38Z</time>
      </trkpt>
      <trkpt lat="49.64743" lon="4.96633">
        <ele>269.31</ele>
        <time>2020-09-17T11:39:53Z</time>
      </trkpt>
      <trkpt lat="49.64756" lon="4.96628">
        <ele>270.27</ele>
        <time>2020-09-17T11:40:08Z</time>
      </trkpt>
      <trkpt lat="49.64777" lon="4.96618">
        <ele>271.71</ele>
        <time>2020-09-17T11:40:28Z</time>
      </trkpt>
      <trkpt lat="49.64796" lon="4.96608">
        <ele>273.15</ele>
        <time>2020-09-17T11:40:47Z</time>
      </trkpt>
      <trkpt lat="49.64818" lon="4.96598">
        <ele>274.11</ele>
        <time>2020-09-17T11:41:09Z</time>
      </trkpt>
      <trkpt lat="49.64838" lon="4.96591">
        <ele>276.52</ele>
        <time>2020-09-17T11:41:29Z</time>
      </trkpt>
      <trkpt lat="49.64855" lon="4.96582">
        <ele>277.48</ele>
        <time>2020-09-17T11:41:47Z</time>
      </trkpt>
      <trkpt lat="49.64871" lon="4.96574">
        <ele>278.44</ele>
        <time>2020-09-17T11:42:05Z</time>
      </trkpt>
      <trkpt lat="49.64885" lon="4.96564">
        <ele>278.92</ele>
        <time>2020-09-17T11:42:21Z</time>
      </trkpt>
      <trkpt lat="49.64901" lon="4.9655">
        <ele>278.92</ele>
        <time>2020-09-17T11:42:40Z</time>
      </trkpt>
      <trkpt lat="49.64922" lon="4.96539">
        <ele>279.88</ele>
        <time>2020-09-17T11:43:02Z</time>
      </trkpt>
      <trkpt lat="49.64938" lon="4.96524">
        <ele>281.32</ele>
        <time>2020-09-17T11:43:23Z</time>
      </trkpt>
      <trkpt lat="49.64951" lon="4.96508">
        <ele>280.84</ele>
        <time>2020-09-17T11:43:42Z</time>
      </trkpt>
      <trkpt lat="49.64961" lon="4.9649">
        <ele>279.88</ele>
        <time>2020-09-17T11:44:01Z</time>
      </trkpt>
      <trkpt lat="49.64973" lon="4.96467">
        <ele>276.52</ele>
        <time>2020-09-17T11:44:20Z</time>
      </trkpt>
      <trkpt lat="49.64987" lon="4.96453">
        <ele>277.96</ele>
        <time>2020-09-17T11:44:35Z</time>
      </trkpt>
      <trkpt lat="49.65003" lon="4.96438">
        <ele>281.8</ele>
        <time>2020-09-17T11:44:50Z</time>
      </trkpt>
      <trkpt lat="49.65016" lon="4.96426">
        <ele>281.32</ele>
        <time>2020-09-17T11:45:08Z</time>
      </trkpt>
      <trkpt lat="49.65038" lon="4.96411">
        <ele>285.65</ele>
        <time>2020-09-17T11:45:25Z</time>
      </trkpt>
      <trkpt lat="49.65053" lon="4.96397">
        <ele>285.17</ele>
        <time>2020-09-17T11:45:43Z</time>
      </trkpt>
      <trkpt lat="49.65063" lon="4.96388">
        <ele>284.69</ele>
        <time>2020-09-17T11:46:01Z</time>
      </trkpt>
      <trkpt lat="49.65079" lon="4.96372">
        <ele>283.73</ele>
        <time>2020-09-17T11:46:21Z</time>
      </trkpt>
      <trkpt lat="49.65093" lon="4.96363">
        <ele>281.32</ele>
        <time>2020-09-17T11:46:40Z</time>
      </trkpt>
      <trkpt lat="49.65095" lon="4.96363">
        <ele>281.32</ele>
        <time>2020-09-17T11:46:41Z</time>
      </trkpt>
      <trkpt lat="49.6511" lon="4.96358">
        <ele>282.77</ele>
        <time>2020-09-17T11:46:58Z</time>
      </trkpt>
      <trkpt lat="49.65128" lon="4.96362">
        <ele>283.73</ele>
        <time>2020-09-17T11:47:15Z</time>
      </trkpt>
      <trkpt lat="49.65145" lon="4.96373">
        <ele>283.73</ele>
        <time>2020-09-17T11:47:32Z</time>
      </trkpt>
      <trkpt lat="49.65161" lon="4.96385">
        <ele>281.8</ele>
        <time>2020-09-17T11:47:50Z</time>
      </trkpt>
      <trkpt lat="49.65175" lon="4.96398">
        <ele>280.84</ele>
        <time>2020-09-17T11:48:06Z</time>
      </trkpt>
      <trkpt lat="49.65194" lon="4.96417">
        <ele>279.4</ele>
        <time>2020-09-17T11:48:27Z</time>
      </trkpt>
      <trkpt lat="49.65207" lon="4.96429">
        <ele>277.48</ele>
        <time>2020-09-17T11:48:43Z</time>
      </trkpt>
      <trkpt lat="49.65226" lon="4.96443">
        <ele>273.63</ele>
        <time>2020-09-17T11:49:04Z</time>
      </trkpt>
      <trkpt lat="49.65242" lon="4.96459">
        <ele>272.19</ele>
        <time>2020-09-17T11:49:24Z</time>
      </trkpt>
      <trkpt lat="49.65257" lon="4.96473">
        <ele>268.83</ele>
        <time>2020-09-17T11:49:43Z</time>
      </trkpt>
      <trkpt lat="49.65273" lon="4.96483">
        <ele>266.42</ele>
        <time>2020-09-17T11:50:00Z</time>
      </trkpt>
      <trkpt lat="49.65289" lon="4.96492">
        <ele>264.5</ele>
        <time>2020-09-17T11:50:18Z</time>
      </trkpt>
      <trkpt lat="49.65295" lon="4.96496">
        <ele>263.06</ele>
        <time>2020-09-17T11:50:25Z</time>
      </trkpt>
      <trkpt lat="49.65316" lon="4.96509">
        <ele>260.17</ele>
        <time>2020-09-17T11:50:46Z</time>
      </trkpt>
      <trkpt lat="49.65336" lon="4.96522">
        <ele>259.21</ele>
        <time>2020-09-17T11:51:07Z</time>
      </trkpt>
      <trkpt lat="49.65354" lon="4.96536">
        <ele>256.81</ele>
        <time>2020-09-17T11:51:28Z</time>
      </trkpt>
      <trkpt lat="49.65366" lon="4.9655">
        <ele>254.89</ele>
        <time>2020-09-17T11:51:44Z</time>
      </trkpt>
      <trkpt lat="49.65378" lon="4.96574">
        <ele>254.89</ele>
        <time>2020-09-17T11:52:02Z</time>
      </trkpt>
      <trkpt lat="49.65378" lon="4.96578">
        <ele>254.89</ele>
        <time>2020-09-17T11:52:04Z</time>
      </trkpt>
      <trkpt lat="49.65381" lon="4.96586">
        <ele>254.89</ele>
        <time>2020-09-17T11:52:09Z</time>
      </trkpt>
      <trkpt lat="49.65391" lon="4.96617">
        <ele>254.89</ele>
        <time>2020-09-17T11:52:29Z</time>
      </trkpt>
      <trkpt lat="49.65403" lon="4.96645">
        <ele>254.41</ele>
        <time>2020-09-17T11:52:50Z</time>
      </trkpt>
      <trkpt lat="49.65413" lon="4.96675">
        <ele>252.96</ele>
        <time>2020-09-17T11:53:11Z</time>
      </trkpt>
      <trkpt lat="49.65415" lon="4.9668">
        <ele>252.48</ele>
        <time>2020-09-17T11:53:15Z</time>
      </trkpt>
      <trkpt lat="49.65418" lon="4.96688">
        <ele>252</ele>
        <time>2020-09-17T11:53:21Z</time>
      </trkpt>
      <trkpt lat="49.65429" lon="4.96715">
        <ele>251.04</ele>
        <time>2020-09-17T11:53:42Z</time>
      </trkpt>
      <trkpt lat="49.65441" lon="4.96741">
        <ele>250.08</ele>
        <time>2020-09-17T11:54:02Z</time>
      </trkpt>
      <trkpt lat="49.65444" lon="4.96725">
        <ele>249.6</ele>
        <time>2020-09-17T11:54:15Z</time>
      </trkpt>
      <trkpt lat="49.65446" lon="4.96704">
        <ele>249.6</ele>
        <time>2020-09-17T11:54:30Z</time>
      </trkpt>
      <trkpt lat="49.65452" lon="4.96678">
        <ele>250.56</ele>
        <time>2020-09-17T11:54:47Z</time>
      </trkpt>
      <trkpt lat="49.6546" lon="4.9665">
        <ele>252.96</ele>
        <time>2020-09-17T11:55:06Z</time>
      </trkpt>
      <trkpt lat="49.65471" lon="4.96617">
        <ele>257.29</ele>
        <time>2020-09-17T11:55:27Z</time>
      </trkpt>
      <trkpt lat="49.65478" lon="4.96596">
        <ele>259.21</ele>
        <time>2020-09-17T11:55:42Z</time>
      </trkpt>
      <trkpt lat="49.65478" lon="4.96592">
        <ele>259.69</ele>
        <time>2020-09-17T11:55:44Z</time>
      </trkpt>
      <trkpt lat="49.65488" lon="4.96566">
        <ele>261.14</ele>
        <time>2020-09-17T11:56:04Z</time>
      </trkpt>
      <trkpt lat="49.65497" lon="4.96537">
        <ele>263.06</ele>
        <time>2020-09-17T11:56:23Z</time>
      </trkpt>
      <trkpt lat="49.65505" lon="4.96511">
        <ele>264.5</ele>
        <time>2020-09-17T11:56:42Z</time>
      </trkpt>
      <trkpt lat="49.65514" lon="4.96483">
        <ele>263.06</ele>
        <time>2020-09-17T11:57:02Z</time>
      </trkpt>
      <trkpt lat="49.65522" lon="4.96458">
        <ele>259.69</ele>
        <time>2020-09-17T11:57:24Z</time>
      </trkpt>
      <trkpt lat="49.65528" lon="4.96437">
        <ele>257.29</ele>
        <time>2020-09-17T11:57:40Z</time>
      </trkpt>
      <trkpt lat="49.65536" lon="4.96412">
        <ele>255.85</ele>
        <time>2020-09-17T11:57:59Z</time>
      </trkpt>
      <trkpt lat="49.65544" lon="4.96384">
        <ele>255.37</ele>
        <time>2020-09-17T11:58:19Z</time>
      </trkpt>
      <trkpt lat="49.65547" lon="4.96357">
        <ele>254.41</ele>
        <time>2020-09-17T11:58:37Z</time>
      </trkpt>
      <trkpt lat="49.65546" lon="4.96352">
        <ele>254.41</ele>
        <time>2020-09-17T11:58:40Z</time>
      </trkpt>
      <trkpt lat="49.6553" lon="4.9633">
        <ele>254.89</ele>
        <time>2020-09-17T11:59:00Z</time>
      </trkpt>
      <trkpt lat="49.6551" lon="4.9631">
        <ele>254.41</ele>
        <time>2020-09-17T11:59:22Z</time>
      </trkpt>
      <trkpt lat="49.65493" lon="4.96292">
        <ele>254.41</ele>
        <time>2020-09-17T11:59:43Z</time>
      </trkpt>
      <trkpt lat="49.65475" lon="4.96273">
        <ele>253.93</ele>
        <time>2020-09-17T12:00:03Z</time>
      </trkpt>
      <trkpt lat="49.65455" lon="4.96253">
        <ele>252.48</ele>
        <time>2020-09-17T12:00:25Z</time>
      </trkpt>
      <trkpt lat="49.65446" lon="4.96243">
        <ele>252</ele>
        <time>2020-09-17T12:00:34Z</time>
      </trkpt>
      <trkpt lat="49.65442" lon="4.9624">
        <ele>251.52</ele>
        <time>2020-09-17T12:00:38Z</time>
      </trkpt>
      <trkpt lat="49.65425" lon="4.96222">
        <ele>249.12</ele>
        <time>2020-09-17T12:00:59Z</time>
      </trkpt>
      <trkpt lat="49.65406" lon="4.96204">
        <ele>247.68</ele>
        <time>2020-09-17T12:01:20Z</time>
      </trkpt>
      <trkpt lat="49.65388" lon="4.96185">
        <ele>246.72</ele>
        <time>2020-09-17T12:01:40Z</time>
      </trkpt>
      <trkpt lat="49.65373" lon="4.96169">
        <ele>247.2</ele>
        <time>2020-09-17T12:01:58Z</time>
      </trkpt>
      <trkpt lat="49.65364" lon="4.96142">
        <ele>246.72</ele>
        <time>2020-09-17T12:02:16Z</time>
      </trkpt>
      <trkpt lat="49.65357" lon="4.96116">
        <ele>245.27</ele>
        <time>2020-09-17T12:02:34Z</time>
      </trkpt>
      <trkpt lat="49.6535" lon="4.96088">
        <ele>243.35</ele>
        <time>2020-09-17T12:02:53Z</time>
      </trkpt>
      <trkpt lat="49.65343" lon="4.96058">
        <ele>241.91</ele>
        <time>2020-09-17T12:03:12Z</time>
      </trkpt>
      <trkpt lat="49.65335" lon="4.96028">
        <ele>239.99</ele>
        <time>2020-09-17T12:03:34Z</time>
      </trkpt>
      <trkpt lat="49.65326" lon="4.95993">
        <ele>239.02</ele>
        <time>2020-09-17T12:03:55Z</time>
      </trkpt>
      <trkpt lat="49.65319" lon="4.95961">
        <ele>237.58</ele>
        <time>2020-09-17T12:04:16Z</time>
      </trkpt>
      <trkpt lat="49.65311" lon="4.95931">
        <ele>237.58</ele>
        <time>2020-09-17T12:04:38Z</time>
      </trkpt>
      <trkpt lat="49.65307" lon="4.95908">
        <ele>236.62</ele>
        <time>2020-09-17T12:04:54Z</time>
      </trkpt>
      <trkpt lat="49.65301" lon="4.95872">
        <ele>234.7</ele>
        <time>2020-09-17T12:05:17Z</time>
      </trkpt>
      <trkpt lat="49.65295" lon="4.95844">
        <ele>233.74</ele>
        <time>2020-09-17T12:05:36Z</time>
      </trkpt>
      <trkpt lat="49.65289" lon="4.95812">
        <ele>231.81</ele>
        <time>2020-09-17T12:05:57Z</time>
      </trkpt>
      <trkpt lat="49.65283" lon="4.95782">
        <ele>230.85</ele>
        <time>2020-09-17T12:06:18Z</time>
      </trkpt>
      <trkpt lat="49.65276" lon="4.95747">
        <ele>229.89</ele>
        <time>2020-09-17T12:06:42Z</time>
      </trkpt>
      <trkpt lat="49.65271" lon="4.95716">
        <ele>227.97</ele>
        <time>2020-09-17T12:07:03Z</time>
      </trkpt>
      <trkpt lat="49.65271" lon="4.95689">
        <ele>227.01</ele>
        <time>2020-09-17T12:07:22Z</time>
      </trkpt>
      <trkpt lat="49.65272" lon="4.95683">
        <ele>226.53</ele>
        <time>2020-09-17T12:07:26Z</time>
      </trkpt>
      <trkpt lat="49.6528" lon="4.95656">
        <ele>223.64</ele>
        <time>2020-09-17T12:07:45Z</time>
      </trkpt>
      <trkpt lat="49.65287" lon="4.95626">
        <ele>218.84</ele>
        <time>2020-09-17T12:08:05Z</time>
      </trkpt>
      <trkpt lat="49.65287" lon="4.95597">
        <ele>214.03</ele>
        <time>2020-09-17T12:08:23Z</time>
      </trkpt>
      <trkpt lat="49.65286" lon="4.95571">
        <ele>210.67</ele>
        <time>2020-09-17T12:08:40Z</time>
      </trkpt>
      <trkpt lat="49.65286" lon="4.95542">
        <ele>205.86</ele>
        <time>2020-09-17T12:08:59Z</time>
      </trkpt>
      <trkpt lat="49.65293" lon="4.95512">
        <ele>203.94</ele>
        <time>2020-09-17T12:09:19Z</time>
      </trkpt>
      <trkpt lat="49.65305" lon="4.95482">
        <ele>201.53</ele>
        <time>2020-09-17T12:09:41Z</time>
      </trkpt>
      <trkpt lat="49.65314" lon="4.95457">
        <ele>198.65</ele>
        <time>2020-09-17T12:10:00Z</time>
      </trkpt>
      <trkpt lat="49.65325" lon="4.95427">
        <ele>197.21</ele>
        <time>2020-09-17T12:10:22Z</time>
      </trkpt>
      <trkpt lat="49.65334" lon="4.95397">
        <ele>193.36</ele>
        <time>2020-09-17T12:10:44Z</time>
      </trkpt>
      <trkpt lat="49.65343" lon="4.95365">
        <ele>190.48</ele>
        <time>2020-09-17T12:11:06Z</time>
      </trkpt>
      <trkpt lat="49.65354" lon="4.95329">
        <ele>186.15</ele>
        <time>2020-09-17T12:11:31Z</time>
      </trkpt>
      <trkpt lat="49.65357" lon="4.95299">
        <ele>183.75</ele>
        <time>2020-09-17T12:11:52Z</time>
      </trkpt>
      <trkpt lat="49.65359" lon="4.95269">
        <ele>181.35</ele>
        <time>2020-09-17T12:12:11Z</time>
      </trkpt>
      <trkpt lat="49.65363" lon="4.95233">
        <ele>180.38</ele>
        <time>2020-09-17T12:12:33Z</time>
      </trkpt>
      <trkpt lat="49.65367" lon="4.95195">
        <ele>178.46</ele>
        <time>2020-09-17T12:12:57Z</time>
      </trkpt>
      <trkpt lat="49.6537" lon="4.9516">
        <ele>177.02</ele>
        <time>2020-09-17T12:13:18Z</time>
      </trkpt>
      <trkpt lat="49.65374" lon="4.95126">
        <ele>175.58</ele>
        <time>2020-09-17T12:13:39Z</time>
      </trkpt>
      <trkpt lat="49.65378" lon="4.95086">
        <ele>173.66</ele>
        <time>2020-09-17T12:14:03Z</time>
      </trkpt>
      <trkpt lat="49.6538" lon="4.95054">
        <ele>173.17</ele>
        <time>2020-09-17T12:14:22Z</time>
      </trkpt>
      <trkpt lat="49.65382" lon="4.95027">
        <ele>171.25</ele>
        <time>2020-09-17T12:14:40Z</time>
      </trkpt>
      <trkpt lat="49.6538" lon="4.94988">
        <ele>168.85</ele>
        <time>2020-09-17T12:15:04Z</time>
      </trkpt>
      <trkpt lat="49.65378" lon="4.94959">
        <ele>166.45</ele>
        <time>2020-09-17T12:15:23Z</time>
      </trkpt>
      <trkpt lat="49.65376" lon="4.9494">
        <ele>165</ele>
        <time>2020-09-17T12:15:35Z</time>
      </trkpt>
      <trkpt lat="49.65385" lon="4.94909">
        <ele>163.08</ele>
        <time>2020-09-17T12:15:54Z</time>
      </trkpt>
      <trkpt lat="49.65389" lon="4.94897">
        <ele>163.08</ele>
        <time>2020-09-17T12:16:03Z</time>
      </trkpt>
      <trkpt lat="49.65406" lon="4.94874">
        <ele>161.64</ele>
        <time>2020-09-17T12:16:25Z</time>
      </trkpt>
      <trkpt lat="49.65412" lon="4.94874">
        <ele>160.68</ele>
        <time>2020-09-17T12:16:43Z</time>
      </trkpt>
      <trkpt lat="49.65413" lon="4.94875">
        <ele>160.2</ele>
        <time>2020-09-17T12:17:03Z</time>
      </trkpt>
      <trkpt lat="49.65413" lon="4.94875">
        <ele>162.12</ele>
        <time>2020-09-17T12:17:32Z</time>
      </trkpt>
      <trkpt lat="49.65413" lon="4.94875">
        <ele>162.12</ele>
        <time>2020-09-17T12:17:46Z</time>
      </trkpt>
      <trkpt lat="49.65413" lon="4.94875">
        <ele>162.12</ele>
        <time>2020-09-17T12:18:08Z</time>
      </trkpt>
      <trkpt lat="49.65413" lon="4.94875">
        <ele>162.12</ele>
        <time>2020-09-17T12:18:38Z</time>
      </trkpt>
      <trkpt lat="49.65413" lon="4.94875">
        <ele>161.64</ele>
        <time>2020-09-17T12:19:07Z</time>
      </trkpt>
      <trkpt lat="49.65413" lon="4.94873">
        <ele>161.16</ele>
        <time>2020-09-17T12:19:33Z</time>
      </trkpt>
      <trkpt lat="49.65413" lon="4.94874">
        <ele>161.16</ele>
        <time>2020-09-17T12:20:11Z</time>
      </trkpt>
      <trkpt lat="49.65413" lon="4.94874">
        <ele>160.68</ele>
        <time>2020-09-17T12:20:41Z</time>
      </trkpt>
      <trkpt lat="49.65413" lon="4.94874">
        <ele>160.68</ele>
        <time>2020-09-17T12:20:56Z</time>
      </trkpt>
      <trkpt lat="49.65412" lon="4.94874">
        <ele>161.16</ele>
        <time>2020-09-17T12:21:15Z</time>
      </trkpt>
      <trkpt lat="49.65412" lon="4.94873">
        <ele>161.64</ele>
        <time>2020-09-17T12:21:35Z</time>
      </trkpt>
      <trkpt lat="49.65414" lon="4.94864">
        <ele>161.64</ele>
        <time>2020-09-17T12:21:50Z</time>
      </trkpt>
      <trkpt lat="49.65429" lon="4.94834">
        <ele>162.6</ele>
        <time>2020-09-17T12:22:10Z</time>
      </trkpt>
      <trkpt lat="49.65444" lon="4.94807">
        <ele>164.52</ele>
        <time>2020-09-17T12:22:30Z</time>
      </trkpt>
      <trkpt lat="49.65456" lon="4.94784">
        <ele>167.41</ele>
        <time>2020-09-17T12:22:48Z</time>
      </trkpt>
      <trkpt lat="49.65464" lon="4.9476">
        <ele>169.81</ele>
        <time>2020-09-17T12:23:04Z</time>
      </trkpt>
      <trkpt lat="49.6547" lon="4.94734">
        <ele>170.77</ele>
        <time>2020-09-17T12:23:20Z</time>
      </trkpt>
      <trkpt lat="49.65473" lon="4.94716">
        <ele>170.77</ele>
        <time>2020-09-17T12:23:32Z</time>
      </trkpt>
      <trkpt lat="49.65472" lon="4.94694">
        <ele>173.66</ele>
        <time>2020-09-17T12:23:47Z</time>
      </trkpt>
      <trkpt lat="49.6547" lon="4.94689">
        <ele>173.66</ele>
        <time>2020-09-17T12:23:50Z</time>
      </trkpt>
      <trkpt lat="49.65468" lon="4.94687">
        <ele>173.66</ele>
        <time>2020-09-17T12:23:52Z</time>
      </trkpt>
      <trkpt lat="49.6546" lon="4.94682">
        <ele>174.14</ele>
        <time>2020-09-17T12:24:01Z</time>
      </trkpt>
      <trkpt lat="49.65453" lon="4.94665">
        <ele>174.14</ele>
        <time>2020-09-17T12:24:16Z</time>
      </trkpt>
      <trkpt lat="49.65446" lon="4.94661">
        <ele>173.17</ele>
        <time>2020-09-17T12:24:22Z</time>
      </trkpt>
      <trkpt lat="49.65424" lon="4.94647">
        <ele>172.69</ele>
        <time>2020-09-17T12:24:44Z</time>
      </trkpt>
      <trkpt lat="49.65416" lon="4.94632">
        <ele>174.62</ele>
        <time>2020-09-17T12:24:59Z</time>
      </trkpt>
      <trkpt lat="49.65416" lon="4.94627">
        <ele>174.62</ele>
        <time>2020-09-17T12:25:02Z</time>
      </trkpt>
      <trkpt lat="49.65423" lon="4.94616">
        <ele>175.1</ele>
        <time>2020-09-17T12:25:11Z</time>
      </trkpt>
      <trkpt lat="49.65428" lon="4.94604">
        <ele>176.06</ele>
        <time>2020-09-17T12:25:21Z</time>
      </trkpt>
      <trkpt lat="49.65429" lon="4.94589">
        <ele>177.02</ele>
        <time>2020-09-17T12:25:30Z</time>
      </trkpt>
      <trkpt lat="49.65428" lon="4.94566">
        <ele>177.5</ele>
        <time>2020-09-17T12:25:44Z</time>
      </trkpt>
      <trkpt lat="49.65428" lon="4.94551">
        <ele>178.46</ele>
        <time>2020-09-17T12:25:54Z</time>
      </trkpt>
      <trkpt lat="49.65429" lon="4.94539">
        <ele>178.94</ele>
        <time>2020-09-17T12:26:02Z</time>
      </trkpt>
      <trkpt lat="49.6543" lon="4.94512">
        <ele>182.79</ele>
        <time>2020-09-17T12:26:20Z</time>
      </trkpt>
      <trkpt lat="49.65429" lon="4.9449">
        <ele>185.67</ele>
        <time>2020-09-17T12:26:34Z</time>
      </trkpt>
      <trkpt lat="49.6543" lon="4.94461">
        <ele>189.52</ele>
        <time>2020-09-17T12:26:52Z</time>
      </trkpt>
      <trkpt lat="49.65432" lon="4.94431">
        <ele>192.4</ele>
        <time>2020-09-17T12:27:11Z</time>
      </trkpt>
      <trkpt lat="49.65437" lon="4.94407">
        <ele>194.32</ele>
        <time>2020-09-17T12:27:26Z</time>
      </trkpt>
      <trkpt lat="49.65444" lon="4.94383">
        <ele>195.28</ele>
        <time>2020-09-17T12:27:42Z</time>
      </trkpt>
      <trkpt lat="49.65451" lon="4.94364">
        <ele>195.28</ele>
        <time>2020-09-17T12:27:56Z</time>
      </trkpt>
      <trkpt lat="49.65461" lon="4.94344">
        <ele>194.8</ele>
        <time>2020-09-17T12:28:12Z</time>
      </trkpt>
      <trkpt lat="49.65477" lon="4.94327">
        <ele>196.25</ele>
        <time>2020-09-17T12:28:32Z</time>
      </trkpt>
      <trkpt lat="49.65493" lon="4.94312">
        <ele>197.69</ele>
        <time>2020-09-17T12:28:50Z</time>
      </trkpt>
      <trkpt lat="49.65513" lon="4.94294">
        <ele>200.57</ele>
        <time>2020-09-17T12:29:12Z</time>
      </trkpt>
      <trkpt lat="49.65532" lon="4.94277">
        <ele>203.94</ele>
        <time>2020-09-17T12:29:33Z</time>
      </trkpt>
      <trkpt lat="49.65547" lon="4.94264">
        <ele>205.86</ele>
        <time>2020-09-17T12:29:50Z</time>
      </trkpt>
      <trkpt lat="49.65564" lon="4.94248">
        <ele>208.74</ele>
        <time>2020-09-17T12:30:08Z</time>
      </trkpt>
      <trkpt lat="49.65577" lon="4.9423">
        <ele>211.15</ele>
        <time>2020-09-17T12:30:25Z</time>
      </trkpt>
      <trkpt lat="49.6559" lon="4.9421">
        <ele>212.11</ele>
        <time>2020-09-17T12:30:43Z</time>
      </trkpt>
      <trkpt lat="49.65601" lon="4.94187">
        <ele>214.03</ele>
        <time>2020-09-17T12:31:00Z</time>
      </trkpt>
      <trkpt lat="49.65611" lon="4.94164">
        <ele>216.91</ele>
        <time>2020-09-17T12:31:17Z</time>
      </trkpt>
      <trkpt lat="49.6562" lon="4.94144">
        <ele>219.32</ele>
        <time>2020-09-17T12:31:33Z</time>
      </trkpt>
      <trkpt lat="49.65629" lon="4.94122">
        <ele>221.72</ele>
        <time>2020-09-17T12:31:50Z</time>
      </trkpt>
      <trkpt lat="49.65642" lon="4.94098">
        <ele>221.72</ele>
        <time>2020-09-17T12:32:10Z</time>
      </trkpt>
      <trkpt lat="49.65655" lon="4.94082">
        <ele>221.72</ele>
        <time>2020-09-17T12:32:27Z</time>
      </trkpt>
      <trkpt lat="49.6567" lon="4.94065">
        <ele>223.16</ele>
        <time>2020-09-17T12:32:45Z</time>
      </trkpt>
      <trkpt lat="49.65684" lon="4.94051">
        <ele>224.12</ele>
        <time>2020-09-17T12:33:01Z</time>
      </trkpt>
      <trkpt lat="49.65699" lon="4.94037">
        <ele>225.57</ele>
        <time>2020-09-17T12:33:19Z</time>
      </trkpt>
      <trkpt lat="49.65715" lon="4.94024">
        <ele>227.49</ele>
        <time>2020-09-17T12:33:36Z</time>
      </trkpt>
      <trkpt lat="49.6573" lon="4.94014">
        <ele>229.41</ele>
        <time>2020-09-17T12:33:52Z</time>
      </trkpt>
      <trkpt lat="49.65746" lon="4.94004">
        <ele>230.37</ele>
        <time>2020-09-17T12:34:09Z</time>
      </trkpt>
      <trkpt lat="49.65764" lon="4.9399">
        <ele>233.26</ele>
        <time>2020-09-17T12:34:29Z</time>
      </trkpt>
      <trkpt lat="49.65768" lon="4.93988">
        <ele>233.74</ele>
        <time>2020-09-17T12:34:43Z</time>
      </trkpt>
      <trkpt lat="49.65786" lon="4.93978">
        <ele>235.66</ele>
        <time>2020-09-17T12:35:01Z</time>
      </trkpt>
      <trkpt lat="49.65805" lon="4.9397">
        <ele>238.06</ele>
        <time>2020-09-17T12:35:20Z</time>
      </trkpt>
      <trkpt lat="49.65824" lon="4.93962">
        <ele>239.51</ele>
        <time>2020-09-17T12:35:39Z</time>
      </trkpt>
      <trkpt lat="49.65843" lon="4.93956">
        <ele>241.43</ele>
        <time>2020-09-17T12:35:58Z</time>
      </trkpt>
      <trkpt lat="49.65864" lon="4.9395">
        <ele>243.35</ele>
        <time>2020-09-17T12:36:17Z</time>
      </trkpt>
      <trkpt lat="49.65881" lon="4.93943">
        <ele>244.79</ele>
        <time>2020-09-17T12:36:35Z</time>
      </trkpt>
      <trkpt lat="49.65899" lon="4.93932">
        <ele>245.27</ele>
        <time>2020-09-17T12:36:54Z</time>
      </trkpt>
      <trkpt lat="49.65917" lon="4.93918">
        <ele>245.27</ele>
        <time>2020-09-17T12:37:14Z</time>
      </trkpt>
      <trkpt lat="49.65915" lon="4.93905">
        <ele>245.75</ele>
        <time>2020-09-17T12:37:30Z</time>
      </trkpt>
      <trkpt lat="49.65914" lon="4.93902">
        <ele>244.31</ele>
        <time>2020-09-17T12:37:46Z</time>
      </trkpt>
      <trkpt lat="49.65915" lon="4.93901">
        <ele>244.31</ele>
        <time>2020-09-17T12:38:07Z</time>
      </trkpt>
      <trkpt lat="49.65915" lon="4.93902">
        <ele>244.79</ele>
        <time>2020-09-17T12:38:39Z</time>
      </trkpt>
      <trkpt lat="49.65913" lon="4.93902">
        <ele>245.27</ele>
        <time>2020-09-17T12:39:00Z</time>
      </trkpt>
      <trkpt lat="49.6591" lon="4.93895">
        <ele>244.79</ele>
        <time>2020-09-17T12:39:16Z</time>
      </trkpt>
      <trkpt lat="49.65907" lon="4.93887">
        <ele>244.79</ele>
        <time>2020-09-17T12:39:34Z</time>
      </trkpt>
      <trkpt lat="49.65902" lon="4.9388">
        <ele>245.27</ele>
        <time>2020-09-17T12:39:49Z</time>
      </trkpt>
      <trkpt lat="49.65899" lon="4.93871">
        <ele>244.79</ele>
        <time>2020-09-17T12:40:04Z</time>
      </trkpt>
      <trkpt lat="49.65892" lon="4.93862">
        <ele>244.79</ele>
        <time>2020-09-17T12:40:20Z</time>
      </trkpt>
      <trkpt lat="49.65888" lon="4.93864">
        <ele>245.27</ele>
        <time>2020-09-17T12:40:37Z</time>
      </trkpt>
      <trkpt lat="49.65888" lon="4.93865">
        <ele>245.27</ele>
        <time>2020-09-17T12:40:55Z</time>
      </trkpt>
      <trkpt lat="49.65885" lon="4.93864">
        <ele>244.31</ele>
        <time>2020-09-17T12:41:13Z</time>
      </trkpt>
      <trkpt lat="49.65883" lon="4.93857">
        <ele>243.35</ele>
        <time>2020-09-17T12:41:28Z</time>
      </trkpt>
      <trkpt lat="49.65885" lon="4.93846">
        <ele>243.83</ele>
        <time>2020-09-17T12:41:39Z</time>
      </trkpt>
      <trkpt lat="49.65885" lon="4.93845">
        <ele>244.31</ele>
        <time>2020-09-17T12:41:58Z</time>
      </trkpt>
      <trkpt lat="49.65887" lon="4.93837">
        <ele>244.31</ele>
        <time>2020-09-17T12:42:14Z</time>
      </trkpt>
      <trkpt lat="49.65887" lon="4.93837">
        <ele>244.31</ele>
        <time>2020-09-17T12:42:38Z</time>
      </trkpt>
      <trkpt lat="49.65894" lon="4.93849">
        <ele>243.83</ele>
        <time>2020-09-17T12:42:54Z</time>
      </trkpt>
      <trkpt lat="49.65898" lon="4.93851">
        <ele>244.79</ele>
        <time>2020-09-17T12:43:08Z</time>
      </trkpt>
      <trkpt lat="49.65901" lon="4.93849">
        <ele>244.79</ele>
        <time>2020-09-17T12:43:24Z</time>
      </trkpt>
      <trkpt lat="49.65902" lon="4.93857">
        <ele>245.27</ele>
        <time>2020-09-17T12:43:44Z</time>
      </trkpt>
      <trkpt lat="49.65908" lon="4.93867">
        <ele>245.75</ele>
        <time>2020-09-17T12:43:57Z</time>
      </trkpt>
      <trkpt lat="49.65911" lon="4.93874">
        <ele>245.27</ele>
        <time>2020-09-17T12:44:09Z</time>
      </trkpt>
      <trkpt lat="49.65914" lon="4.93877">
        <ele>244.79</ele>
        <time>2020-09-17T12:44:24Z</time>
      </trkpt>
      <trkpt lat="49.65913" lon="4.9388">
        <ele>245.27</ele>
        <time>2020-09-17T12:44:41Z</time>
      </trkpt>
      <trkpt lat="49.6591" lon="4.93885">
        <ele>245.75</ele>
        <time>2020-09-17T12:44:57Z</time>
      </trkpt>
      <trkpt lat="49.65914" lon="4.93891">
        <ele>245.27</ele>
        <time>2020-09-17T12:45:14Z</time>
      </trkpt>
      <trkpt lat="49.65916" lon="4.93892">
        <ele>245.27</ele>
        <time>2020-09-17T12:45:26Z</time>
      </trkpt>
      <trkpt lat="49.65918" lon="4.93896">
        <ele>245.75</ele>
        <time>2020-09-17T12:45:41Z</time>
      </trkpt>
      <trkpt lat="49.65915" lon="4.93899">
        <ele>245.27</ele>
        <time>2020-09-17T12:45:54Z</time>
      </trkpt>
      <trkpt lat="49.65914" lon="4.93901">
        <ele>245.27</ele>
        <time>2020-09-17T12:46:16Z</time>
      </trkpt>
      <trkpt lat="49.65914" lon="4.93902">
        <ele>244.79</ele>
        <time>2020-09-17T12:46:35Z</time>
      </trkpt>
      <trkpt lat="49.65918" lon="4.93908">
        <ele>245.27</ele>
        <time>2020-09-17T12:46:44Z</time>
      </trkpt>
      <trkpt lat="49.65925" lon="4.9391">
        <ele>245.75</ele>
        <time>2020-09-17T12:46:51Z</time>
      </trkpt>
      <trkpt lat="49.65941" lon="4.93898">
        <ele>246.72</ele>
        <time>2020-09-17T12:47:09Z</time>
      </trkpt>
      <trkpt lat="49.65954" lon="4.93884">
        <ele>249.6</ele>
        <time>2020-09-17T12:47:24Z</time>
      </trkpt>
      <trkpt lat="49.6597" lon="4.93872">
        <ele>251.52</ele>
        <time>2020-09-17T12:47:41Z</time>
      </trkpt>
      <trkpt lat="49.65987" lon="4.93859">
        <ele>254.41</ele>
        <time>2020-09-17T12:47:59Z</time>
      </trkpt>
      <trkpt lat="49.65994" lon="4.93855">
        <ele>252.96</ele>
        <time>2020-09-17T12:48:12Z</time>
      </trkpt>
      <trkpt lat="49.66012" lon="4.93845">
        <ele>252.96</ele>
        <time>2020-09-17T12:48:29Z</time>
      </trkpt>
      <trkpt lat="49.66029" lon="4.93833">
        <ele>253.44</ele>
        <time>2020-09-17T12:48:46Z</time>
      </trkpt>
      <trkpt lat="49.66048" lon="4.93821">
        <ele>254.41</ele>
        <time>2020-09-17T12:49:05Z</time>
      </trkpt>
      <trkpt lat="49.66064" lon="4.9381">
        <ele>256.81</ele>
        <time>2020-09-17T12:49:23Z</time>
      </trkpt>
      <trkpt lat="49.6608" lon="4.93798">
        <ele>256.81</ele>
        <time>2020-09-17T12:49:40Z</time>
      </trkpt>
      <trkpt lat="49.66091" lon="4.93786">
        <ele>258.73</ele>
        <time>2020-09-17T12:49:54Z</time>
      </trkpt>
      <trkpt lat="49.66093" lon="4.93775">
        <ele>259.21</ele>
        <time>2020-09-17T12:50:04Z</time>
      </trkpt>
      <trkpt lat="49.66094" lon="4.93751">
        <ele>259.21</ele>
        <time>2020-09-17T12:50:19Z</time>
      </trkpt>
      <trkpt lat="49.66097" lon="4.93722">
        <ele>262.1</ele>
        <time>2020-09-17T12:50:37Z</time>
      </trkpt>
      <trkpt lat="49.66097" lon="4.9372">
        <ele>262.1</ele>
        <time>2020-09-17T12:50:38Z</time>
      </trkpt>
      <trkpt lat="49.66099" lon="4.93714">
        <ele>262.58</ele>
        <time>2020-09-17T12:50:42Z</time>
      </trkpt>
      <trkpt lat="49.66098" lon="4.93703">
        <ele>264.02</ele>
        <time>2020-09-17T12:50:50Z</time>
      </trkpt>
      <trkpt lat="49.66099" lon="4.93672">
        <ele>266.42</ele>
        <time>2020-09-17T12:51:09Z</time>
      </trkpt>
      <trkpt lat="49.66104" lon="4.93642">
        <ele>269.79</ele>
        <time>2020-09-17T12:51:28Z</time>
      </trkpt>
      <trkpt lat="49.6611" lon="4.93613">
        <ele>271.71</ele>
        <time>2020-09-17T12:51:46Z</time>
      </trkpt>
      <trkpt lat="49.66114" lon="4.9359">
        <ele>273.15</ele>
        <time>2020-09-17T12:52:02Z</time>
      </trkpt>
      <trkpt lat="49.66119" lon="4.93567">
        <ele>272.67</ele>
        <time>2020-09-17T12:52:18Z</time>
      </trkpt>
      <trkpt lat="49.66123" lon="4.93557">
        <ele>273.63</ele>
        <time>2020-09-17T12:52:27Z</time>
      </trkpt>
      <trkpt lat="49.66127" lon="4.93556">
        <ele>273.63</ele>
        <time>2020-09-17T12:52:32Z</time>
      </trkpt>
      <trkpt lat="49.66134" lon="4.93555">
        <ele>273.15</ele>
        <time>2020-09-17T12:52:47Z</time>
      </trkpt>
      <trkpt lat="49.66138" lon="4.93568">
        <ele>272.67</ele>
        <time>2020-09-17T12:53:02Z</time>
      </trkpt>
      <trkpt lat="49.66142" lon="4.9359">
        <ele>272.67</ele>
        <time>2020-09-17T12:53:18Z</time>
      </trkpt>
      <trkpt lat="49.66147" lon="4.93611">
        <ele>272.67</ele>
        <time>2020-09-17T12:53:34Z</time>
      </trkpt>
      <trkpt lat="49.66146" lon="4.93613">
        <ele>272.67</ele>
        <time>2020-09-17T12:53:35Z</time>
      </trkpt>
      <trkpt lat="49.66152" lon="4.93635">
        <ele>271.23</ele>
        <time>2020-09-17T12:53:53Z</time>
      </trkpt>
      <trkpt lat="49.66157" lon="4.93652">
        <ele>269.79</ele>
        <time>2020-09-17T12:54:08Z</time>
      </trkpt>
      <trkpt lat="49.6617" lon="4.93653">
        <ele>268.35</ele>
        <time>2020-09-17T12:54:25Z</time>
      </trkpt>
      <trkpt lat="49.66178" lon="4.93646">
        <ele>265.94</ele>
        <time>2020-09-17T12:54:40Z</time>
      </trkpt>
      <trkpt lat="49.66178" lon="4.93646">
        <ele>266.42</ele>
        <time>2020-09-17T12:54:59Z</time>
      </trkpt>
      <trkpt lat="49.66183" lon="4.93639">
        <ele>264.98</ele>
        <time>2020-09-17T12:55:13Z</time>
      </trkpt>
      <trkpt lat="49.66185" lon="4.93639">
        <ele>265.46</ele>
        <time>2020-09-17T12:55:30Z</time>
      </trkpt>
      <trkpt lat="49.66184" lon="4.93639">
        <ele>265.46</ele>
        <time>2020-09-17T12:55:45Z</time>
      </trkpt>
      <trkpt lat="49.66185" lon="4.93634">
        <ele>264.5</ele>
        <time>2020-09-17T12:55:51Z</time>
      </trkpt>
      <trkpt lat="49.66195" lon="4.93607">
        <ele>262.58</ele>
        <time>2020-09-17T12:56:10Z</time>
      </trkpt>
      <trkpt lat="49.662" lon="4.93595">
        <ele>262.1</ele>
        <time>2020-09-17T12:56:19Z</time>
      </trkpt>
      <trkpt lat="49.66205" lon="4.93587">
        <ele>262.58</ele>
        <time>2020-09-17T12:56:27Z</time>
      </trkpt>
      <trkpt lat="49.66206" lon="4.93585">
        <ele>262.58</ele>
        <time>2020-09-17T12:56:29Z</time>
      </trkpt>
      <trkpt lat="49.6621" lon="4.93577">
        <ele>262.58</ele>
        <time>2020-09-17T12:56:37Z</time>
      </trkpt>
      <trkpt lat="49.66229" lon="4.93562">
        <ele>263.06</ele>
        <time>2020-09-17T12:56:57Z</time>
      </trkpt>
      <trkpt lat="49.66246" lon="4.93551">
        <ele>261.62</ele>
        <time>2020-09-17T12:57:17Z</time>
      </trkpt>
      <trkpt lat="49.66256" lon="4.93544">
        <ele>260.65</ele>
        <time>2020-09-17T12:57:35Z</time>
      </trkpt>
      <trkpt lat="49.6627" lon="4.93535">
        <ele>260.65</ele>
        <time>2020-09-17T12:57:51Z</time>
      </trkpt>
      <trkpt lat="49.66287" lon="4.93526">
        <ele>262.1</ele>
        <time>2020-09-17T12:58:07Z</time>
      </trkpt>
      <trkpt lat="49.66304" lon="4.93521">
        <ele>261.14</ele>
        <time>2020-09-17T12:58:24Z</time>
      </trkpt>
      <trkpt lat="49.6632" lon="4.93521">
        <ele>259.69</ele>
        <time>2020-09-17T12:58:41Z</time>
      </trkpt>
      <trkpt lat="49.66322" lon="4.93522">
        <ele>260.17</ele>
        <time>2020-09-17T12:58:44Z</time>
      </trkpt>
      <trkpt lat="49.66332" lon="4.93524">
        <ele>260.65</ele>
        <time>2020-09-17T12:58:57Z</time>
      </trkpt>
      <trkpt lat="49.66335" lon="4.93521">
        <ele>260.17</ele>
        <time>2020-09-17T12:59:01Z</time>
      </trkpt>
      <trkpt lat="49.66353" lon="4.93515">
        <ele>259.69</ele>
        <time>2020-09-17T12:59:19Z</time>
      </trkpt>
      <trkpt lat="49.66368" lon="4.93502">
        <ele>259.69</ele>
        <time>2020-09-17T12:59:36Z</time>
      </trkpt>
      <trkpt lat="49.66375" lon="4.93491">
        <ele>258.25</ele>
        <time>2020-09-17T12:59:52Z</time>
      </trkpt>
      <trkpt lat="49.66375" lon="4.93491">
        <ele>258.73</ele>
        <time>2020-09-17T13:00:11Z</time>
      </trkpt>
      <trkpt lat="49.66371" lon="4.93495">
        <ele>259.69</ele>
        <time>2020-09-17T13:00:25Z</time>
      </trkpt>
      <trkpt lat="49.66361" lon="4.93506">
        <ele>256.81</ele>
        <time>2020-09-17T13:00:42Z</time>
      </trkpt>
      <trkpt lat="49.66361" lon="4.93508">
        <ele>257.77</ele>
        <time>2020-09-17T13:01:03Z</time>
      </trkpt>
      <trkpt lat="49.66349" lon="4.93512">
        <ele>257.29</ele>
        <time>2020-09-17T13:01:21Z</time>
      </trkpt>
      <trkpt lat="49.66338" lon="4.93514">
        <ele>257.77</ele>
        <time>2020-09-17T13:01:36Z</time>
      </trkpt>
      <trkpt lat="49.66336" lon="4.93516">
        <ele>257.77</ele>
        <time>2020-09-17T13:01:59Z</time>
      </trkpt>
      <trkpt lat="49.66331" lon="4.93518">
        <ele>258.73</ele>
        <time>2020-09-17T13:02:14Z</time>
      </trkpt>
      <trkpt lat="49.66334" lon="4.93527">
        <ele>258.25</ele>
        <time>2020-09-17T13:02:35Z</time>
      </trkpt>
      <trkpt lat="49.66335" lon="4.93527">
        <ele>258.73</ele>
        <time>2020-09-17T13:02:36Z</time>
      </trkpt>
      <trkpt lat="49.66348" lon="4.93534">
        <ele>260.17</ele>
        <time>2020-09-17T13:02:52Z</time>
      </trkpt>
      <trkpt lat="49.66354" lon="4.93538">
        <ele>261.62</ele>
        <time>2020-09-17T13:03:06Z</time>
      </trkpt>
      <trkpt lat="49.66353" lon="4.93538">
        <ele>260.65</ele>
        <time>2020-09-17T13:03:31Z</time>
      </trkpt>
      <trkpt lat="49.66354" lon="4.93537">
        <ele>261.14</ele>
        <time>2020-09-17T13:04:00Z</time>
      </trkpt>
      <trkpt lat="49.66354" lon="4.93537">
        <ele>261.14</ele>
        <time>2020-09-17T13:04:33Z</time>
      </trkpt>
      <trkpt lat="49.66354" lon="4.93536">
        <ele>260.65</ele>
        <time>2020-09-17T13:05:09Z</time>
      </trkpt>
      <trkpt lat="49.66355" lon="4.93537">
        <ele>259.69</ele>
        <time>2020-09-17T13:05:49Z</time>
      </trkpt>
      <trkpt lat="49.66354" lon="4.93537">
        <ele>259.21</ele>
        <time>2020-09-17T13:06:26Z</time>
      </trkpt>
      <trkpt lat="49.66353" lon="4.93539">
        <ele>260.65</ele>
        <time>2020-09-17T13:06:56Z</time>
      </trkpt>
      <trkpt lat="49.66353" lon="4.9354">
        <ele>261.14</ele>
        <time>2020-09-17T13:07:31Z</time>
      </trkpt>
      <trkpt lat="49.66352" lon="4.9354">
        <ele>261.62</ele>
        <time>2020-09-17T13:08:08Z</time>
      </trkpt>
      <trkpt lat="49.66352" lon="4.93541">
        <ele>261.14</ele>
        <time>2020-09-17T13:08:44Z</time>
      </trkpt>
      <trkpt lat="49.66352" lon="4.93541">
        <ele>261.62</ele>
        <time>2020-09-17T13:09:15Z</time>
      </trkpt>
      <trkpt lat="49.66353" lon="4.93541">
        <ele>262.1</ele>
        <time>2020-09-17T13:09:46Z</time>
      </trkpt>
      <trkpt lat="49.66353" lon="4.9354">
        <ele>261.62</ele>
        <time>2020-09-17T13:10:15Z</time>
      </trkpt>
      <trkpt lat="49.66354" lon="4.9354">
        <ele>261.62</ele>
        <time>2020-09-17T13:10:48Z</time>
      </trkpt>
      <trkpt lat="49.66355" lon="4.93539">
        <ele>261.62</ele>
        <time>2020-09-17T13:11:26Z</time>
      </trkpt>
      <trkpt lat="49.66355" lon="4.93539">
        <ele>261.62</ele>
        <time>2020-09-17T13:11:58Z</time>
      </trkpt>
      <trkpt lat="49.66354" lon="4.93538">
        <ele>261.62</ele>
        <time>2020-09-17T13:12:23Z</time>
      </trkpt>
      <trkpt lat="49.66353" lon="4.93537">
        <ele>261.62</ele>
        <time>2020-09-17T13:12:44Z</time>
      </trkpt>
      <trkpt lat="49.66353" lon="4.93537">
        <ele>261.14</ele>
        <time>2020-09-17T13:13:00Z</time>
      </trkpt>
      <trkpt lat="49.66353" lon="4.93537">
        <ele>261.14</ele>
        <time>2020-09-17T13:13:30Z</time>
      </trkpt>
      <trkpt lat="49.66353" lon="4.93537">
        <ele>261.14</ele>
        <time>2020-09-17T13:13:50Z</time>
      </trkpt>
      <trkpt lat="49.66353" lon="4.93537">
        <ele>260.17</ele>
        <time>2020-09-17T13:14:22Z</time>
      </trkpt>
      <trkpt lat="49.66354" lon="4.93538">
        <ele>259.69</ele>
        <time>2020-09-17T13:15:01Z</time>
      </trkpt>
      <trkpt lat="49.66354" lon="4.93537">
        <ele>258.73</ele>
        <time>2020-09-17T13:15:39Z</time>
      </trkpt>
      <trkpt lat="49.66354" lon="4.93538">
        <ele>258.73</ele>
        <time>2020-09-17T13:16:18Z</time>
      </trkpt>
      <trkpt lat="49.66355" lon="4.93536">
        <ele>259.21</ele>
        <time>2020-09-17T13:16:45Z</time>
      </trkpt>
      <trkpt lat="49.66356" lon="4.93536">
        <ele>258.73</ele>
        <time>2020-09-17T13:17:10Z</time>
      </trkpt>
      <trkpt lat="49.66356" lon="4.93536">
        <ele>259.21</ele>
        <time>2020-09-17T13:17:39Z</time>
      </trkpt>
      <trkpt lat="49.66356" lon="4.93535">
        <ele>259.21</ele>
        <time>2020-09-17T13:17:56Z</time>
      </trkpt>
      <trkpt lat="49.66355" lon="4.93535">
        <ele>258.73</ele>
        <time>2020-09-17T13:18:17Z</time>
      </trkpt>
      <trkpt lat="49.66352" lon="4.93535">
        <ele>259.21</ele>
        <time>2020-09-17T13:18:21Z</time>
      </trkpt>
      <trkpt lat="49.66341" lon="4.93533">
        <ele>259.21</ele>
        <time>2020-09-17T13:18:35Z</time>
      </trkpt>
      <trkpt lat="49.66356" lon="4.93544">
        <ele>257.77</ele>
        <time>2020-09-17T13:18:53Z</time>
      </trkpt>
      <trkpt lat="49.66369" lon="4.93554">
        <ele>256.33</ele>
        <time>2020-09-17T13:19:10Z</time>
      </trkpt>
      <trkpt lat="49.66378" lon="4.93558">
        <ele>255.85</ele>
        <time>2020-09-17T13:19:22Z</time>
      </trkpt>
      <trkpt lat="49.66379" lon="4.93567">
        <ele>255.37</ele>
        <time>2020-09-17T13:19:41Z</time>
      </trkpt>
      <trkpt lat="49.66382" lon="4.93565">
        <ele>255.85</ele>
        <time>2020-09-17T13:19:49Z</time>
      </trkpt>
      <trkpt lat="49.66397" lon="4.93564">
        <ele>254.41</ele>
        <time>2020-09-17T13:20:05Z</time>
      </trkpt>
      <trkpt lat="49.66398" lon="4.93564">
        <ele>253.93</ele>
        <time>2020-09-17T13:20:06Z</time>
      </trkpt>
      <trkpt lat="49.66411" lon="4.93573">
        <ele>251.52</ele>
        <time>2020-09-17T13:20:22Z</time>
      </trkpt>
      <trkpt lat="49.66424" lon="4.93584">
        <ele>249.6</ele>
        <time>2020-09-17T13:20:38Z</time>
      </trkpt>
      <trkpt lat="49.66436" lon="4.93598">
        <ele>248.16</ele>
        <time>2020-09-17T13:20:53Z</time>
      </trkpt>
      <trkpt lat="49.66439" lon="4.93603">
        <ele>247.2</ele>
        <time>2020-09-17T13:20:59Z</time>
      </trkpt>
      <trkpt lat="49.66447" lon="4.93616">
        <ele>246.72</ele>
        <time>2020-09-17T13:21:10Z</time>
      </trkpt>
      <trkpt lat="49.66458" lon="4.93631">
        <ele>247.2</ele>
        <time>2020-09-17T13:21:27Z</time>
      </trkpt>
      <trkpt lat="49.6646" lon="4.93633">
        <ele>247.2</ele>
        <time>2020-09-17T13:21:40Z</time>
      </trkpt>
      <trkpt lat="49.66466" lon="4.93638">
        <ele>246.72</ele>
        <time>2020-09-17T13:21:46Z</time>
      </trkpt>
      <trkpt lat="49.6648" lon="4.93657">
        <ele>245.75</ele>
        <time>2020-09-17T13:22:04Z</time>
      </trkpt>
      <trkpt lat="49.66495" lon="4.93676">
        <ele>246.72</ele>
        <time>2020-09-17T13:22:22Z</time>
      </trkpt>
      <trkpt lat="49.66509" lon="4.93707">
        <ele>246.72</ele>
        <time>2020-09-17T13:22:43Z</time>
      </trkpt>
      <trkpt lat="49.66522" lon="4.93737">
        <ele>242.87</ele>
        <time>2020-09-17T13:23:03Z</time>
      </trkpt>
      <trkpt lat="49.66532" lon="4.93755">
        <ele>240.95</ele>
        <time>2020-09-17T13:23:16Z</time>
      </trkpt>
      <trkpt lat="49.6654" lon="4.93775">
        <ele>237.58</ele>
        <time>2020-09-17T13:23:31Z</time>
      </trkpt>
      <trkpt lat="49.6655" lon="4.93793">
        <ele>236.62</ele>
        <time>2020-09-17T13:23:46Z</time>
      </trkpt>
      <trkpt lat="49.66559" lon="4.93816">
        <ele>235.18</ele>
        <time>2020-09-17T13:24:02Z</time>
      </trkpt>
      <trkpt lat="49.66568" lon="4.93842">
        <ele>231.33</ele>
        <time>2020-09-17T13:24:20Z</time>
      </trkpt>
      <trkpt lat="49.66573" lon="4.93853">
        <ele>230.85</ele>
        <time>2020-09-17T13:24:28Z</time>
      </trkpt>
      <trkpt lat="49.6658" lon="4.93877">
        <ele>228.93</ele>
        <time>2020-09-17T13:24:44Z</time>
      </trkpt>
      <trkpt lat="49.66582" lon="4.93883">
        <ele>227.97</ele>
        <time>2020-09-17T13:24:48Z</time>
      </trkpt>
      <trkpt lat="49.66584" lon="4.9389">
        <ele>226.53</ele>
        <time>2020-09-17T13:24:53Z</time>
      </trkpt>
      <trkpt lat="49.66587" lon="4.93896">
        <ele>225.57</ele>
        <time>2020-09-17T13:24:58Z</time>
      </trkpt>
      <trkpt lat="49.66597" lon="4.93925">
        <ele>223.16</ele>
        <time>2020-09-17T13:25:16Z</time>
      </trkpt>
      <trkpt lat="49.66604" lon="4.93947">
        <ele>221.72</ele>
        <time>2020-09-17T13:25:33Z</time>
      </trkpt>
      <trkpt lat="49.66612" lon="4.93965">
        <ele>218.84</ele>
        <time>2020-09-17T13:25:49Z</time>
      </trkpt>
      <trkpt lat="49.6662" lon="4.9399">
        <ele>215.95</ele>
        <time>2020-09-17T13:26:03Z</time>
      </trkpt>
      <trkpt lat="49.6663" lon="4.94014">
        <ele>216.91</ele>
        <time>2020-09-17T13:26:20Z</time>
      </trkpt>
      <trkpt lat="49.66634" lon="4.94027">
        <ele>217.88</ele>
        <time>2020-09-17T13:26:28Z</time>
      </trkpt>
      <trkpt lat="49.66643" lon="4.9405">
        <ele>216.43</ele>
        <time>2020-09-17T13:26:45Z</time>
      </trkpt>
      <trkpt lat="49.6665" lon="4.94073">
        <ele>216.91</ele>
        <time>2020-09-17T13:27:00Z</time>
      </trkpt>
      <trkpt lat="49.66659" lon="4.94097">
        <ele>216.91</ele>
        <time>2020-09-17T13:27:17Z</time>
      </trkpt>
      <trkpt lat="49.66666" lon="4.94117">
        <ele>216.43</ele>
        <time>2020-09-17T13:27:31Z</time>
      </trkpt>
      <trkpt lat="49.66673" lon="4.94137">
        <ele>216.43</ele>
        <time>2020-09-17T13:27:47Z</time>
      </trkpt>
      <trkpt lat="49.66673" lon="4.94138">
        <ele>216.91</ele>
        <time>2020-09-17T13:27:49Z</time>
      </trkpt>
      <trkpt lat="49.66683" lon="4.94171">
        <ele>217.88</ele>
        <time>2020-09-17T13:28:09Z</time>
      </trkpt>
      <trkpt lat="49.66691" lon="4.94195">
        <ele>218.36</ele>
        <time>2020-09-17T13:28:25Z</time>
      </trkpt>
      <trkpt lat="49.66698" lon="4.94216">
        <ele>216.91</ele>
        <time>2020-09-17T13:28:40Z</time>
      </trkpt>
      <trkpt lat="49.66707" lon="4.9424">
        <ele>216.43</ele>
        <time>2020-09-17T13:28:57Z</time>
      </trkpt>
      <trkpt lat="49.66716" lon="4.94268">
        <ele>213.55</ele>
        <time>2020-09-17T13:29:15Z</time>
      </trkpt>
      <trkpt lat="49.66724" lon="4.94294">
        <ele>211.63</ele>
        <time>2020-09-17T13:29:34Z</time>
      </trkpt>
      <trkpt lat="49.66729" lon="4.94304">
        <ele>211.63</ele>
        <time>2020-09-17T13:29:43Z</time>
      </trkpt>
      <trkpt lat="49.66736" lon="4.9433">
        <ele>211.15</ele>
        <time>2020-09-17T13:30:01Z</time>
      </trkpt>
      <trkpt lat="49.66742" lon="4.94356">
        <ele>211.15</ele>
        <time>2020-09-17T13:30:18Z</time>
      </trkpt>
      <trkpt lat="49.66751" lon="4.94385">
        <ele>211.15</ele>
        <time>2020-09-17T13:30:37Z</time>
      </trkpt>
      <trkpt lat="49.66758" lon="4.94412">
        <ele>210.67</ele>
        <time>2020-09-17T13:30:56Z</time>
      </trkpt>
      <trkpt lat="49.66764" lon="4.9444">
        <ele>209.22</ele>
        <time>2020-09-17T13:31:14Z</time>
      </trkpt>
      <trkpt lat="49.66765" lon="4.94444">
        <ele>209.22</ele>
        <time>2020-09-17T13:31:17Z</time>
      </trkpt>
      <trkpt lat="49.66774" lon="4.94472">
        <ele>206.82</ele>
        <time>2020-09-17T13:31:37Z</time>
      </trkpt>
      <trkpt lat="49.66782" lon="4.94503">
        <ele>204.9</ele>
        <time>2020-09-17T13:31:57Z</time>
      </trkpt>
      <trkpt lat="49.6679" lon="4.94531">
        <ele>202.98</ele>
        <time>2020-09-17T13:32:16Z</time>
      </trkpt>
      <trkpt lat="49.66797" lon="4.94556">
        <ele>200.09</ele>
        <time>2020-09-17T13:32:32Z</time>
      </trkpt>
      <trkpt lat="49.66805" lon="4.94581">
        <ele>199.61</ele>
        <time>2020-09-17T13:32:49Z</time>
      </trkpt>
      <trkpt lat="49.66807" lon="4.94607">
        <ele>198.65</ele>
        <time>2020-09-17T13:33:05Z</time>
      </trkpt>
      <trkpt lat="49.66807" lon="4.94637">
        <ele>198.17</ele>
        <time>2020-09-17T13:33:23Z</time>
      </trkpt>
      <trkpt lat="49.66807" lon="4.94671">
        <ele>197.69</ele>
        <time>2020-09-17T13:33:43Z</time>
      </trkpt>
      <trkpt lat="49.66807" lon="4.94704">
        <ele>198.17</ele>
        <time>2020-09-17T13:34:03Z</time>
      </trkpt>
      <trkpt lat="49.66807" lon="4.94737">
        <ele>198.65</ele>
        <time>2020-09-17T13:34:23Z</time>
      </trkpt>
      <trkpt lat="49.66807" lon="4.94766">
        <ele>196.73</ele>
        <time>2020-09-17T13:34:41Z</time>
      </trkpt>
      <trkpt lat="49.66807" lon="4.94771">
        <ele>196.25</ele>
        <time>2020-09-17T13:34:44Z</time>
      </trkpt>
      <trkpt lat="49.66807" lon="4.94801">
        <ele>192.88</ele>
        <time>2020-09-17T13:35:03Z</time>
      </trkpt>
      <trkpt lat="49.66805" lon="4.94811">
        <ele>192.4</ele>
        <time>2020-09-17T13:35:11Z</time>
      </trkpt>
      <trkpt lat="49.66801" lon="4.94839">
        <ele>190.48</ele>
        <time>2020-09-17T13:35:29Z</time>
      </trkpt>
      <trkpt lat="49.668" lon="4.94842">
        <ele>190.48</ele>
        <time>2020-09-17T13:35:31Z</time>
      </trkpt>
      <trkpt lat="49.66795" lon="4.94872">
        <ele>190.96</ele>
        <time>2020-09-17T13:35:50Z</time>
      </trkpt>
      <trkpt lat="49.66791" lon="4.94898">
        <ele>191.92</ele>
        <time>2020-09-17T13:36:07Z</time>
      </trkpt>
      <trkpt lat="49.66787" lon="4.94931">
        <ele>188.56</ele>
        <time>2020-09-17T13:36:27Z</time>
      </trkpt>
      <trkpt lat="49.66783" lon="4.94957">
        <ele>186.15</ele>
        <time>2020-09-17T13:36:43Z</time>
      </trkpt>
      <trkpt lat="49.66779" lon="4.94987">
        <ele>185.19</ele>
        <time>2020-09-17T13:37:02Z</time>
      </trkpt>
      <trkpt lat="49.66776" lon="4.95004">
        <ele>184.23</ele>
        <time>2020-09-17T13:37:12Z</time>
      </trkpt>
      <trkpt lat="49.66773" lon="4.9502">
        <ele>183.75</ele>
        <time>2020-09-17T13:37:22Z</time>
      </trkpt>
      <trkpt lat="49.6677" lon="4.95043">
        <ele>182.79</ele>
        <time>2020-09-17T13:37:38Z</time>
      </trkpt>
      <trkpt lat="49.66765" lon="4.95072">
        <ele>182.79</ele>
        <time>2020-09-17T13:37:55Z</time>
      </trkpt>
      <trkpt lat="49.66761" lon="4.95092">
        <ele>182.31</ele>
        <time>2020-09-17T13:38:08Z</time>
      </trkpt>
      <trkpt lat="49.66759" lon="4.951">
        <ele>182.79</ele>
        <time>2020-09-17T13:38:13Z</time>
      </trkpt>
      <trkpt lat="49.66747" lon="4.95129">
        <ele>183.27</ele>
        <time>2020-09-17T13:38:33Z</time>
      </trkpt>
      <trkpt lat="49.66738" lon="4.95151">
        <ele>180.87</ele>
        <time>2020-09-17T13:38:47Z</time>
      </trkpt>
      <trkpt lat="49.66736" lon="4.95155">
        <ele>179.9</ele>
        <time>2020-09-17T13:38:50Z</time>
      </trkpt>
      <trkpt lat="49.66725" lon="4.95184">
        <ele>176.54</ele>
        <time>2020-09-17T13:39:10Z</time>
      </trkpt>
      <trkpt lat="49.66717" lon="4.95208">
        <ele>173.66</ele>
        <time>2020-09-17T13:39:27Z</time>
      </trkpt>
      <trkpt lat="49.66705" lon="4.95236">
        <ele>172.69</ele>
        <time>2020-09-17T13:39:45Z</time>
      </trkpt>
      <trkpt lat="49.66696" lon="4.95255">
        <ele>172.21</ele>
        <time>2020-09-17T13:40:00Z</time>
      </trkpt>
      <trkpt lat="49.66681" lon="4.95279">
        <ele>170.77</ele>
        <time>2020-09-17T13:40:20Z</time>
      </trkpt>
      <trkpt lat="49.66676" lon="4.95288">
        <ele>168.37</ele>
        <time>2020-09-17T13:40:34Z</time>
      </trkpt>
      <trkpt lat="49.66664" lon="4.95306">
        <ele>165.48</ele>
        <time>2020-09-17T13:40:51Z</time>
      </trkpt>
      <trkpt lat="49.66653" lon="4.95322">
        <ele>163.56</ele>
        <time>2020-09-17T13:41:07Z</time>
      </trkpt>
      <trkpt lat="49.6664" lon="4.95338">
        <ele>162.12</ele>
        <time>2020-09-17T13:41:25Z</time>
      </trkpt>
      <trkpt lat="49.66628" lon="4.95339">
        <ele>160.2</ele>
        <time>2020-09-17T13:41:37Z</time>
      </trkpt>
      <trkpt lat="49.66624" lon="4.95336">
        <ele>159.72</ele>
        <time>2020-09-17T13:41:40Z</time>
      </trkpt>
      <trkpt lat="49.66618" lon="4.95325">
        <ele>157.31</ele>
        <time>2020-09-17T13:41:48Z</time>
      </trkpt>
      <trkpt lat="49.66607" lon="4.95306">
        <ele>154.43</ele>
        <time>2020-09-17T13:42:04Z</time>
      </trkpt>
      <trkpt lat="49.666" lon="4.95297">
        <ele>153.47</ele>
        <time>2020-09-17T13:42:11Z</time>
      </trkpt>
      <trkpt lat="49.66587" lon="4.95286">
        <ele>154.43</ele>
        <time>2020-09-17T13:42:25Z</time>
      </trkpt>
      <trkpt lat="49.66571" lon="4.95272">
        <ele>150.1</ele>
        <time>2020-09-17T13:42:42Z</time>
      </trkpt>
      <trkpt lat="49.6657" lon="4.95272">
        <ele>150.1</ele>
        <time>2020-09-17T13:42:43Z</time>
      </trkpt>
      <trkpt lat="49.66568" lon="4.95271">
        <ele>149.62</ele>
        <time>2020-09-17T13:42:45Z</time>
      </trkpt>
      <trkpt lat="49.66553" lon="4.95264">
        <ele>147.7</ele>
        <time>2020-09-17T13:42:59Z</time>
      </trkpt>
      <trkpt lat="49.66534" lon="4.95258">
        <ele>146.74</ele>
        <time>2020-09-17T13:43:16Z</time>
      </trkpt>
      <trkpt lat="49.66532" lon="4.95259">
        <ele>146.74</ele>
        <time>2020-09-17T13:43:18Z</time>
      </trkpt>
      <trkpt lat="49.66517" lon="4.95279">
        <ele>153.47</ele>
        <time>2020-09-17T13:43:36Z</time>
      </trkpt>
      <trkpt lat="49.66508" lon="4.95303">
        <ele>155.87</ele>
        <time>2020-09-17T13:43:53Z</time>
      </trkpt>
      <trkpt lat="49.66496" lon="4.95335">
        <ele>158.27</ele>
        <time>2020-09-17T13:44:12Z</time>
      </trkpt>
      <trkpt lat="49.66488" lon="4.95361">
        <ele>158.75</ele>
        <time>2020-09-17T13:44:28Z</time>
      </trkpt>
      <trkpt lat="49.6648" lon="4.95386">
        <ele>158.27</ele>
        <time>2020-09-17T13:44:45Z</time>
      </trkpt>
      <trkpt lat="49.66468" lon="4.95417">
        <ele>159.24</ele>
        <time>2020-09-17T13:45:06Z</time>
      </trkpt>
      <trkpt lat="49.6646" lon="4.95447">
        <ele>159.72</ele>
        <time>2020-09-17T13:45:24Z</time>
      </trkpt>
      <trkpt lat="49.66468" lon="4.95474">
        <ele>161.16</ele>
        <time>2020-09-17T13:45:40Z</time>
      </trkpt>
      <trkpt lat="49.66475" lon="4.955">
        <ele>161.64</ele>
        <time>2020-09-17T13:45:58Z</time>
      </trkpt>
      <trkpt lat="49.66488" lon="4.95506">
        <ele>161.16</ele>
        <time>2020-09-17T13:46:13Z</time>
      </trkpt>
      <trkpt lat="49.66493" lon="4.95501">
        <ele>160.2</ele>
        <time>2020-09-17T13:46:18Z</time>
      </trkpt>
      <trkpt lat="49.6651" lon="4.95484">
        <ele>158.75</ele>
        <time>2020-09-17T13:46:33Z</time>
      </trkpt>
      <trkpt lat="49.66522" lon="4.95478">
        <ele>159.24</ele>
        <time>2020-09-17T13:46:48Z</time>
      </trkpt>
      <trkpt lat="49.66537" lon="4.95478">
        <ele>160.68</ele>
        <time>2020-09-17T13:47:06Z</time>
      </trkpt>
      <trkpt lat="49.66538" lon="4.95479">
        <ele>160.68</ele>
        <time>2020-09-17T13:47:07Z</time>
      </trkpt>
      <trkpt lat="49.66552" lon="4.95495">
        <ele>162.12</ele>
        <time>2020-09-17T13:47:24Z</time>
      </trkpt>
      <trkpt lat="49.66568" lon="4.95508">
        <ele>161.16</ele>
        <time>2020-09-17T13:47:40Z</time>
      </trkpt>
      <trkpt lat="49.66585" lon="4.9552">
        <ele>160.2</ele>
        <time>2020-09-17T13:47:58Z</time>
      </trkpt>
      <trkpt lat="49.66607" lon="4.95532">
        <ele>159.24</ele>
        <time>2020-09-17T13:48:16Z</time>
      </trkpt>
      <trkpt lat="49.66621" lon="4.95545">
        <ele>157.31</ele>
        <time>2020-09-17T13:48:30Z</time>
      </trkpt>
      <trkpt lat="49.66635" lon="4.95556">
        <ele>156.83</ele>
        <time>2020-09-17T13:48:45Z</time>
      </trkpt>
      <trkpt lat="49.66655" lon="4.95576">
        <ele>150.58</ele>
        <time>2020-09-17T13:49:01Z</time>
      </trkpt>
      <trkpt lat="49.6667" lon="4.95589">
        <ele>148.18</ele>
        <time>2020-09-17T13:49:18Z</time>
      </trkpt>
      <trkpt lat="49.66684" lon="4.95606">
        <ele>144.82</ele>
        <time>2020-09-17T13:49:35Z</time>
      </trkpt>
      <trkpt lat="49.66698" lon="4.95629">
        <ele>142.41</ele>
        <time>2020-09-17T13:49:53Z</time>
      </trkpt>
      <trkpt lat="49.66708" lon="4.95645">
        <ele>141.93</ele>
        <time>2020-09-17T13:50:06Z</time>
      </trkpt>
      <trkpt lat="49.66715" lon="4.95662">
        <ele>147.22</ele>
        <time>2020-09-17T13:50:16Z</time>
      </trkpt>
      <trkpt lat="49.6672" lon="4.95672">
        <ele>150.1</ele>
        <time>2020-09-17T13:50:25Z</time>
      </trkpt>
      <trkpt lat="49.66722" lon="4.95685">
        <ele>152.51</ele>
        <time>2020-09-17T13:50:33Z</time>
      </trkpt>
      <trkpt lat="49.66726" lon="4.95703">
        <ele>152.03</ele>
        <time>2020-09-17T13:50:44Z</time>
      </trkpt>
      <trkpt lat="49.66738" lon="4.95723">
        <ele>150.58</ele>
        <time>2020-09-17T13:51:00Z</time>
      </trkpt>
      <trkpt lat="49.66744" lon="4.95726">
        <ele>152.03</ele>
        <time>2020-09-17T13:51:05Z</time>
      </trkpt>
      <trkpt lat="49.66756" lon="4.95748">
        <ele>153.95</ele>
        <time>2020-09-17T13:51:22Z</time>
      </trkpt>
      <trkpt lat="49.66764" lon="4.95762">
        <ele>154.91</ele>
        <time>2020-09-17T13:51:33Z</time>
      </trkpt>
      <trkpt lat="49.66777" lon="4.95781">
        <ele>155.39</ele>
        <time>2020-09-17T13:51:50Z</time>
      </trkpt>
      <trkpt lat="49.66781" lon="4.95787">
        <ele>155.39</ele>
        <time>2020-09-17T13:51:54Z</time>
      </trkpt>
      <trkpt lat="49.66788" lon="4.95796">
        <ele>154.91</ele>
        <time>2020-09-17T13:52:03Z</time>
      </trkpt>
      <trkpt lat="49.66805" lon="4.95815">
        <ele>155.87</ele>
        <time>2020-09-17T13:52:22Z</time>
      </trkpt>
      <trkpt lat="49.6681" lon="4.95822">
        <ele>155.39</ele>
        <time>2020-09-17T13:52:28Z</time>
      </trkpt>
      <trkpt lat="49.66823" lon="4.95841">
        <ele>152.99</ele>
        <time>2020-09-17T13:52:44Z</time>
      </trkpt>
      <trkpt lat="49.66836" lon="4.95859">
        <ele>152.03</ele>
        <time>2020-09-17T13:53:00Z</time>
      </trkpt>
      <trkpt lat="49.6685" lon="4.9588">
        <ele>151.06</ele>
        <time>2020-09-17T13:53:17Z</time>
      </trkpt>
      <trkpt lat="49.6685" lon="4.95885">
        <ele>151.54</ele>
        <time>2020-09-17T13:53:21Z</time>
      </trkpt>
      <trkpt lat="49.66843" lon="4.95912">
        <ele>153.95</ele>
        <time>2020-09-17T13:53:40Z</time>
      </trkpt>
      <trkpt lat="49.66837" lon="4.95937">
        <ele>157.79</ele>
        <time>2020-09-17T13:53:56Z</time>
      </trkpt>
      <trkpt lat="49.66828" lon="4.95964">
        <ele>160.2</ele>
        <time>2020-09-17T13:54:14Z</time>
      </trkpt>
      <trkpt lat="49.66816" lon="4.95989">
        <ele>162.12</ele>
        <time>2020-09-17T13:54:31Z</time>
      </trkpt>
      <trkpt lat="49.6682" lon="4.95999">
        <ele>160.2</ele>
        <time>2020-09-17T13:54:42Z</time>
      </trkpt>
      <trkpt lat="49.66829" lon="4.96017">
        <ele>156.35</ele>
        <time>2020-09-17T13:54:56Z</time>
      </trkpt>
      <trkpt lat="49.66837" lon="4.96021">
        <ele>155.87</ele>
        <time>2020-09-17T13:55:05Z</time>
      </trkpt>
      <trkpt lat="49.66842" lon="4.96019">
        <ele>156.35</ele>
        <time>2020-09-17T13:55:11Z</time>
      </trkpt>
      <trkpt lat="49.66856" lon="4.95997">
        <ele>155.39</ele>
        <time>2020-09-17T13:55:30Z</time>
      </trkpt>
      <trkpt lat="49.66867" lon="4.95972">
        <ele>153.95</ele>
        <time>2020-09-17T13:55:47Z</time>
      </trkpt>
      <trkpt lat="49.66875" lon="4.95959">
        <ele>154.43</ele>
        <time>2020-09-17T13:56:05Z</time>
      </trkpt>
      <trkpt lat="49.66875" lon="4.9596">
        <ele>154.43</ele>
        <time>2020-09-17T13:56:18Z</time>
      </trkpt>
      <trkpt lat="49.66873" lon="4.95964">
        <ele>154.43</ele>
        <time>2020-09-17T13:56:23Z</time>
      </trkpt>
      <trkpt lat="49.66865" lon="4.95979">
        <ele>153.95</ele>
        <time>2020-09-17T13:56:37Z</time>
      </trkpt>
      <trkpt lat="49.66856" lon="4.96001">
        <ele>153.47</ele>
        <time>2020-09-17T13:56:53Z</time>
      </trkpt>
      <trkpt lat="49.66849" lon="4.96021">
        <ele>154.91</ele>
        <time>2020-09-17T13:57:08Z</time>
      </trkpt>
      <trkpt lat="49.6684" lon="4.96045">
        <ele>155.39</ele>
        <time>2020-09-17T13:57:26Z</time>
      </trkpt>
      <trkpt lat="49.66828" lon="4.96067">
        <ele>156.35</ele>
        <time>2020-09-17T13:57:43Z</time>
      </trkpt>
      <trkpt lat="49.6682" lon="4.96085">
        <ele>155.87</ele>
        <time>2020-09-17T13:57:57Z</time>
      </trkpt>
      <trkpt lat="49.66811" lon="4.96106">
        <ele>156.83</ele>
        <time>2020-09-17T13:58:12Z</time>
      </trkpt>
      <trkpt lat="49.66803" lon="4.96131">
        <ele>157.79</ele>
        <time>2020-09-17T13:58:29Z</time>
      </trkpt>
      <trkpt lat="49.66795" lon="4.96158">
        <ele>157.31</ele>
        <time>2020-09-17T13:58:46Z</time>
      </trkpt>
      <trkpt lat="49.6679" lon="4.96177">
        <ele>156.83</ele>
        <time>2020-09-17T13:58:59Z</time>
      </trkpt>
      <trkpt lat="49.66789" lon="4.96182">
        <ele>156.83</ele>
        <time>2020-09-17T13:59:02Z</time>
      </trkpt>
      <trkpt lat="49.66783" lon="4.96201">
        <ele>156.83</ele>
        <time>2020-09-17T13:59:17Z</time>
      </trkpt>
      <trkpt lat="49.66776" lon="4.96226">
        <ele>156.35</ele>
        <time>2020-09-17T13:59:33Z</time>
      </trkpt>
      <trkpt lat="49.66771" lon="4.9625">
        <ele>156.35</ele>
        <time>2020-09-17T13:59:47Z</time>
      </trkpt>
      <trkpt lat="49.66767" lon="4.9628">
        <ele>156.35</ele>
        <time>2020-09-17T14:00:06Z</time>
      </trkpt>
      <trkpt lat="49.66763" lon="4.96311">
        <ele>156.35</ele>
        <time>2020-09-17T14:00:25Z</time>
      </trkpt>
      <trkpt lat="49.66762" lon="4.96336">
        <ele>155.87</ele>
        <time>2020-09-17T14:00:40Z</time>
      </trkpt>
      <trkpt lat="49.66764" lon="4.96361">
        <ele>154.91</ele>
        <time>2020-09-17T14:00:55Z</time>
      </trkpt>
      <trkpt lat="49.66765" lon="4.96374">
        <ele>153.95</ele>
        <time>2020-09-17T14:01:11Z</time>
      </trkpt>
      <trkpt lat="49.66765" lon="4.96374">
        <ele>153.95</ele>
        <time>2020-09-17T14:01:24Z</time>
      </trkpt>
      <trkpt lat="49.66767" lon="4.96378">
        <ele>152.99</ele>
        <time>2020-09-17T14:01:45Z</time>
      </trkpt>
      <trkpt lat="49.66769" lon="4.96379">
        <ele>152.51</ele>
        <time>2020-09-17T14:02:12Z</time>
      </trkpt>
      <trkpt lat="49.6677" lon="4.96381">
        <ele>152.51</ele>
        <time>2020-09-17T14:02:40Z</time>
      </trkpt>
      <trkpt lat="49.6677" lon="4.9638">
        <ele>151.54</ele>
        <time>2020-09-17T14:03:15Z</time>
      </trkpt>
      <trkpt lat="49.6677" lon="4.96381">
        <ele>152.03</ele>
        <time>2020-09-17T14:03:46Z</time>
      </trkpt>
      <trkpt lat="49.66769" lon="4.96381">
        <ele>152.03</ele>
        <time>2020-09-17T14:04:19Z</time>
      </trkpt>
      <trkpt lat="49.66769" lon="4.96381">
        <ele>152.03</ele>
        <time>2020-09-17T14:04:47Z</time>
      </trkpt>
      <trkpt lat="49.66769" lon="4.96381">
        <ele>152.51</ele>
        <time>2020-09-17T14:05:18Z</time>
      </trkpt>
      <trkpt lat="49.66768" lon="4.96381">
        <ele>152.51</ele>
        <time>2020-09-17T14:05:49Z</time>
      </trkpt>
      <trkpt lat="49.66768" lon="4.9638">
        <ele>152.03</ele>
        <time>2020-09-17T14:06:24Z</time>
      </trkpt>
      <trkpt lat="49.66769" lon="4.9638">
        <ele>152.51</ele>
        <time>2020-09-17T14:06:59Z</time>
      </trkpt>
      <trkpt lat="49.66769" lon="4.9638">
        <ele>153.47</ele>
        <time>2020-09-17T14:07:31Z</time>
      </trkpt>
      <trkpt lat="49.66769" lon="4.9638">
        <ele>152.99</ele>
        <time>2020-09-17T14:08:02Z</time>
      </trkpt>
      <trkpt lat="49.66768" lon="4.9638">
        <ele>152.99</ele>
        <time>2020-09-17T14:08:28Z</time>
      </trkpt>
      <trkpt lat="49.66768" lon="4.96379">
        <ele>152.51</ele>
        <time>2020-09-17T14:09:04Z</time>
      </trkpt>
      <trkpt lat="49.66768" lon="4.96379">
        <ele>152.51</ele>
        <time>2020-09-17T14:09:39Z</time>
      </trkpt>
      <trkpt lat="49.66768" lon="4.96378">
        <ele>152.03</ele>
        <time>2020-09-17T14:10:12Z</time>
      </trkpt>
      <trkpt lat="49.66769" lon="4.96378">
        <ele>152.51</ele>
        <time>2020-09-17T14:10:46Z</time>
      </trkpt>
      <trkpt lat="49.66768" lon="4.96378">
        <ele>152.51</ele>
        <time>2020-09-17T14:11:21Z</time>
      </trkpt>
      <trkpt lat="49.66769" lon="4.96378">
        <ele>152.51</ele>
        <time>2020-09-17T14:11:52Z</time>
      </trkpt>
      <trkpt lat="49.66769" lon="4.96378">
        <ele>152.51</ele>
        <time>2020-09-17T14:12:21Z</time>
      </trkpt>
      <trkpt lat="49.6677" lon="4.96378">
        <ele>150.58</ele>
        <time>2020-09-17T14:12:43Z</time>
      </trkpt>
      <trkpt lat="49.66774" lon="4.96386">
        <ele>150.58</ele>
        <time>2020-09-17T14:13:03Z</time>
      </trkpt>
      <trkpt lat="49.66778" lon="4.9641">
        <ele>150.58</ele>
        <time>2020-09-17T14:13:20Z</time>
      </trkpt>
      <trkpt lat="49.66783" lon="4.96435">
        <ele>150.58</ele>
        <time>2020-09-17T14:13:38Z</time>
      </trkpt>
      <trkpt lat="49.6679" lon="4.9646">
        <ele>153.95</ele>
        <time>2020-09-17T14:13:57Z</time>
      </trkpt>
      <trkpt lat="49.66795" lon="4.96486">
        <ele>152.51</ele>
        <time>2020-09-17T14:14:13Z</time>
      </trkpt>
      <trkpt lat="49.66799" lon="4.96515">
        <ele>152.03</ele>
        <time>2020-09-17T14:14:30Z</time>
      </trkpt>
      <trkpt lat="49.66801" lon="4.96528">
        <ele>153.47</ele>
        <time>2020-09-17T14:14:40Z</time>
      </trkpt>
      <trkpt lat="49.66806" lon="4.96558">
        <ele>153.95</ele>
        <time>2020-09-17T14:14:59Z</time>
      </trkpt>
      <trkpt lat="49.6681" lon="4.96586">
        <ele>153.47</ele>
        <time>2020-09-17T14:15:17Z</time>
      </trkpt>
      <trkpt lat="49.66816" lon="4.96618">
        <ele>152.03</ele>
        <time>2020-09-17T14:15:37Z</time>
      </trkpt>
      <trkpt lat="49.66821" lon="4.96644">
        <ele>149.14</ele>
        <time>2020-09-17T14:15:54Z</time>
      </trkpt>
      <trkpt lat="49.66825" lon="4.9667">
        <ele>146.74</ele>
        <time>2020-09-17T14:16:11Z</time>
      </trkpt>
      <trkpt lat="49.66829" lon="4.96698">
        <ele>146.74</ele>
        <time>2020-09-17T14:16:30Z</time>
      </trkpt>
      <trkpt lat="49.66831" lon="4.9673">
        <ele>147.22</ele>
        <time>2020-09-17T14:16:49Z</time>
      </trkpt>
      <trkpt lat="49.66829" lon="4.96766">
        <ele>146.26</ele>
        <time>2020-09-17T14:17:08Z</time>
      </trkpt>
      <trkpt lat="49.66823" lon="4.96795">
        <ele>145.3</ele>
        <time>2020-09-17T14:17:25Z</time>
      </trkpt>
      <trkpt lat="49.66817" lon="4.96822">
        <ele>145.78</ele>
        <time>2020-09-17T14:17:44Z</time>
      </trkpt>
      <trkpt lat="49.66807" lon="4.96851">
        <ele>144.82</ele>
        <time>2020-09-17T14:18:03Z</time>
      </trkpt>
      <trkpt lat="49.66798" lon="4.96875">
        <ele>142.41</ele>
        <time>2020-09-17T14:18:21Z</time>
      </trkpt>
      <trkpt lat="49.66789" lon="4.96901">
        <ele>145.3</ele>
        <time>2020-09-17T14:18:39Z</time>
      </trkpt>
      <trkpt lat="49.66783" lon="4.96918">
        <ele>142.89</ele>
        <time>2020-09-17T14:18:54Z</time>
      </trkpt>
      <trkpt lat="49.66778" lon="4.96922">
        <ele>141.93</ele>
        <time>2020-09-17T14:18:59Z</time>
      </trkpt>
      <trkpt lat="49.66772" lon="4.96935">
        <ele>141.45</ele>
        <time>2020-09-17T14:19:08Z</time>
      </trkpt>
      <trkpt lat="49.66747" lon="4.9696">
        <ele>149.62</ele>
        <time>2020-09-17T14:19:30Z</time>
      </trkpt>
      <trkpt lat="49.66739" lon="4.96976">
        <ele>149.62</ele>
        <time>2020-09-17T14:19:44Z</time>
      </trkpt>
      <trkpt lat="49.66725" lon="4.96996">
        <ele>148.66</ele>
        <time>2020-09-17T14:20:01Z</time>
      </trkpt>
      <trkpt lat="49.66712" lon="4.97013">
        <ele>145.78</ele>
        <time>2020-09-17T14:20:19Z</time>
      </trkpt>
      <trkpt lat="49.667" lon="4.97037">
        <ele>145.3</ele>
        <time>2020-09-17T14:20:36Z</time>
      </trkpt>
      <trkpt lat="49.66687" lon="4.97058">
        <ele>147.22</ele>
        <time>2020-09-17T14:20:51Z</time>
      </trkpt>
      <trkpt lat="49.66675" lon="4.97083">
        <ele>148.18</ele>
        <time>2020-09-17T14:21:09Z</time>
      </trkpt>
      <trkpt lat="49.66667" lon="4.97111">
        <ele>147.7</ele>
        <time>2020-09-17T14:21:28Z</time>
      </trkpt>
      <trkpt lat="49.66657" lon="4.97139">
        <ele>148.66</ele>
        <time>2020-09-17T14:21:47Z</time>
      </trkpt>
      <trkpt lat="49.66648" lon="4.97164">
        <ele>149.14</ele>
        <time>2020-09-17T14:22:04Z</time>
      </trkpt>
      <trkpt lat="49.66641" lon="4.9719">
        <ele>148.66</ele>
        <time>2020-09-17T14:22:21Z</time>
      </trkpt>
      <trkpt lat="49.66634" lon="4.97219">
        <ele>148.18</ele>
        <time>2020-09-17T14:22:40Z</time>
      </trkpt>
      <trkpt lat="49.66624" lon="4.97245">
        <ele>147.7</ele>
        <time>2020-09-17T14:22:58Z</time>
      </trkpt>
      <trkpt lat="49.66609" lon="4.97276">
        <ele>148.66</ele>
        <time>2020-09-17T14:23:19Z</time>
      </trkpt>
      <trkpt lat="49.66596" lon="4.97301">
        <ele>149.14</ele>
        <time>2020-09-17T14:23:37Z</time>
      </trkpt>
      <trkpt lat="49.66579" lon="4.9733">
        <ele>149.14</ele>
        <time>2020-09-17T14:23:58Z</time>
      </trkpt>
      <trkpt lat="49.66565" lon="4.97358">
        <ele>150.58</ele>
        <time>2020-09-17T14:24:20Z</time>
      </trkpt>
      <trkpt lat="49.66553" lon="4.97382">
        <ele>150.58</ele>
        <time>2020-09-17T14:24:39Z</time>
      </trkpt>
      <trkpt lat="49.66543" lon="4.97402">
        <ele>150.1</ele>
        <time>2020-09-17T14:24:53Z</time>
      </trkpt>
      <trkpt lat="49.66533" lon="4.97421">
        <ele>150.58</ele>
        <time>2020-09-17T14:25:08Z</time>
      </trkpt>
      <trkpt lat="49.66522" lon="4.97445">
        <ele>153.47</ele>
        <time>2020-09-17T14:25:24Z</time>
      </trkpt>
      <trkpt lat="49.66516" lon="4.97468">
        <ele>154.43</ele>
        <time>2020-09-17T14:25:40Z</time>
      </trkpt>
      <trkpt lat="49.66515" lon="4.9747">
        <ele>154.43</ele>
        <time>2020-09-17T14:25:42Z</time>
      </trkpt>
      <trkpt lat="49.66501" lon="4.9749">
        <ele>152.99</ele>
        <time>2020-09-17T14:25:57Z</time>
      </trkpt>
      <trkpt lat="49.66487" lon="4.97516">
        <ele>154.91</ele>
        <time>2020-09-17T14:26:16Z</time>
      </trkpt>
      <trkpt lat="49.66473" lon="4.97539">
        <ele>156.35</ele>
        <time>2020-09-17T14:26:33Z</time>
      </trkpt>
      <trkpt lat="49.6646" lon="4.97565">
        <ele>156.35</ele>
        <time>2020-09-17T14:26:53Z</time>
      </trkpt>
      <trkpt lat="49.66447" lon="4.97589">
        <ele>157.79</ele>
        <time>2020-09-17T14:27:11Z</time>
      </trkpt>
      <trkpt lat="49.66435" lon="4.97613">
        <ele>156.83</ele>
        <time>2020-09-17T14:27:29Z</time>
      </trkpt>
      <trkpt lat="49.66422" lon="4.97637">
        <ele>157.79</ele>
        <time>2020-09-17T14:27:48Z</time>
      </trkpt>
      <trkpt lat="49.66408" lon="4.97667">
        <ele>155.87</ele>
        <time>2020-09-17T14:28:11Z</time>
      </trkpt>
      <trkpt lat="49.66394" lon="4.97697">
        <ele>154.43</ele>
        <time>2020-09-17T14:28:34Z</time>
      </trkpt>
      <trkpt lat="49.66379" lon="4.97726">
        <ele>152.03</ele>
        <time>2020-09-17T14:28:57Z</time>
      </trkpt>
      <trkpt lat="49.66364" lon="4.97754">
        <ele>151.54</ele>
        <time>2020-09-17T14:29:18Z</time>
      </trkpt>
      <trkpt lat="49.66351" lon="4.97778">
        <ele>152.03</ele>
        <time>2020-09-17T14:29:37Z</time>
      </trkpt>
      <trkpt lat="49.66337" lon="4.97804">
        <ele>151.54</ele>
        <time>2020-09-17T14:29:57Z</time>
      </trkpt>
      <trkpt lat="49.66323" lon="4.97832">
        <ele>152.51</ele>
        <time>2020-09-17T14:30:18Z</time>
      </trkpt>
      <trkpt lat="49.66308" lon="4.9786">
        <ele>152.99</ele>
        <time>2020-09-17T14:30:39Z</time>
      </trkpt>
      <trkpt lat="49.66294" lon="4.97888">
        <ele>152.99</ele>
        <time>2020-09-17T14:31:01Z</time>
      </trkpt>
      <trkpt lat="49.66281" lon="4.97914">
        <ele>152.03</ele>
        <time>2020-09-17T14:31:21Z</time>
      </trkpt>
      <trkpt lat="49.66269" lon="4.97938">
        <ele>151.06</ele>
        <time>2020-09-17T14:31:40Z</time>
      </trkpt>
      <trkpt lat="49.66255" lon="4.97964">
        <ele>151.06</ele>
        <time>2020-09-17T14:32:00Z</time>
      </trkpt>
      <trkpt lat="49.66244" lon="4.97986">
        <ele>150.58</ele>
        <time>2020-09-17T14:32:17Z</time>
      </trkpt>
      <trkpt lat="49.66232" lon="4.98007">
        <ele>150.58</ele>
        <time>2020-09-17T14:32:35Z</time>
      </trkpt>
      <trkpt lat="49.6622" lon="4.98031">
        <ele>151.54</ele>
        <time>2020-09-17T14:32:53Z</time>
      </trkpt>
      <trkpt lat="49.66206" lon="4.98056">
        <ele>151.54</ele>
        <time>2020-09-17T14:33:13Z</time>
      </trkpt>
      <trkpt lat="49.66193" lon="4.98078">
        <ele>152.03</ele>
        <time>2020-09-17T14:33:31Z</time>
      </trkpt>
      <trkpt lat="49.66182" lon="4.98099">
        <ele>153.95</ele>
        <time>2020-09-17T14:33:47Z</time>
      </trkpt>
      <trkpt lat="49.66168" lon="4.98124">
        <ele>154.91</ele>
        <time>2020-09-17T14:34:06Z</time>
      </trkpt>
      <trkpt lat="49.66155" lon="4.98151">
        <ele>152.99</ele>
        <time>2020-09-17T14:34:27Z</time>
      </trkpt>
      <trkpt lat="49.66143" lon="4.98176">
        <ele>152.03</ele>
        <time>2020-09-17T14:34:46Z</time>
      </trkpt>
      <trkpt lat="49.66129" lon="4.98201">
        <ele>152.51</ele>
        <time>2020-09-17T14:35:05Z</time>
      </trkpt>
      <trkpt lat="49.6612" lon="4.98224">
        <ele>150.1</ele>
        <time>2020-09-17T14:35:24Z</time>
      </trkpt>
      <trkpt lat="49.66107" lon="4.9825">
        <ele>150.1</ele>
        <time>2020-09-17T14:35:44Z</time>
      </trkpt>
      <trkpt lat="49.66095" lon="4.98274">
        <ele>148.66</ele>
        <time>2020-09-17T14:36:03Z</time>
      </trkpt>
      <trkpt lat="49.66094" lon="4.98275">
        <ele>148.66</ele>
        <time>2020-09-17T14:36:04Z</time>
      </trkpt>
      <trkpt lat="49.66081" lon="4.983">
        <ele>148.18</ele>
        <time>2020-09-17T14:36:24Z</time>
      </trkpt>
      <trkpt lat="49.66072" lon="4.98317">
        <ele>148.66</ele>
        <time>2020-09-17T14:36:40Z</time>
      </trkpt>
      <trkpt lat="49.66058" lon="4.98344">
        <ele>149.14</ele>
        <time>2020-09-17T14:37:01Z</time>
      </trkpt>
      <trkpt lat="49.66045" lon="4.98367">
        <ele>150.1</ele>
        <time>2020-09-17T14:37:19Z</time>
      </trkpt>
      <trkpt lat="49.66033" lon="4.98389">
        <ele>151.06</ele>
        <time>2020-09-17T14:37:36Z</time>
      </trkpt>
      <trkpt lat="49.66019" lon="4.98417">
        <ele>152.03</ele>
        <time>2020-09-17T14:37:58Z</time>
      </trkpt>
      <trkpt lat="49.66003" lon="4.98443">
        <ele>152.99</ele>
        <time>2020-09-17T14:38:19Z</time>
      </trkpt>
      <trkpt lat="49.65989" lon="4.98467">
        <ele>152.99</ele>
        <time>2020-09-17T14:38:38Z</time>
      </trkpt>
      <trkpt lat="49.65974" lon="4.98491">
        <ele>154.43</ele>
        <time>2020-09-17T14:38:58Z</time>
      </trkpt>
      <trkpt lat="49.65964" lon="4.98509">
        <ele>156.83</ele>
        <time>2020-09-17T14:39:14Z</time>
      </trkpt>
      <trkpt lat="49.65955" lon="4.98531">
        <ele>155.87</ele>
        <time>2020-09-17T14:39:34Z</time>
      </trkpt>
      <trkpt lat="49.65942" lon="4.98555">
        <ele>154.43</ele>
        <time>2020-09-17T14:39:53Z</time>
      </trkpt>
      <trkpt lat="49.65931" lon="4.9858">
        <ele>152.99</ele>
        <time>2020-09-17T14:40:12Z</time>
      </trkpt>
      <trkpt lat="49.65922" lon="4.98602">
        <ele>152.03</ele>
        <time>2020-09-17T14:40:29Z</time>
      </trkpt>
      <trkpt lat="49.65909" lon="4.98627">
        <ele>151.06</ele>
        <time>2020-09-17T14:40:49Z</time>
      </trkpt>
      <trkpt lat="49.65899" lon="4.98647">
        <ele>149.62</ele>
        <time>2020-09-17T14:41:06Z</time>
      </trkpt>
      <trkpt lat="49.65885" lon="4.98672">
        <ele>150.58</ele>
        <time>2020-09-17T14:41:25Z</time>
      </trkpt>
      <trkpt lat="49.6587" lon="4.987">
        <ele>151.54</ele>
        <time>2020-09-17T14:41:46Z</time>
      </trkpt>
      <trkpt lat="49.65856" lon="4.98728">
        <ele>152.03</ele>
        <time>2020-09-17T14:42:08Z</time>
      </trkpt>
      <trkpt lat="49.65845" lon="4.98751">
        <ele>150.1</ele>
        <time>2020-09-17T14:42:26Z</time>
      </trkpt>
      <trkpt lat="49.65833" lon="4.98775">
        <ele>148.18</ele>
        <time>2020-09-17T14:42:46Z</time>
      </trkpt>
      <trkpt lat="49.65821" lon="4.98797">
        <ele>150.1</ele>
        <time>2020-09-17T14:43:02Z</time>
      </trkpt>
      <trkpt lat="49.6581" lon="4.98818">
        <ele>150.58</ele>
        <time>2020-09-17T14:43:19Z</time>
      </trkpt>
      <trkpt lat="49.65796" lon="4.98845">
        <ele>150.1</ele>
        <time>2020-09-17T14:43:40Z</time>
      </trkpt>
      <trkpt lat="49.65784" lon="4.98867">
        <ele>150.58</ele>
        <time>2020-09-17T14:43:57Z</time>
      </trkpt>
      <trkpt lat="49.6577" lon="4.98893">
        <ele>150.1</ele>
        <time>2020-09-17T14:44:16Z</time>
      </trkpt>
      <trkpt lat="49.65756" lon="4.9892">
        <ele>150.1</ele>
        <time>2020-09-17T14:44:37Z</time>
      </trkpt>
      <trkpt lat="49.65747" lon="4.98936">
        <ele>150.58</ele>
        <time>2020-09-17T14:44:50Z</time>
      </trkpt>
      <trkpt lat="49.65734" lon="4.98961">
        <ele>152.03</ele>
        <time>2020-09-17T14:45:09Z</time>
      </trkpt>
      <trkpt lat="49.6573" lon="4.98968">
        <ele>152.03</ele>
        <time>2020-09-17T14:45:15Z</time>
      </trkpt>
      <trkpt lat="49.65717" lon="4.98989">
        <ele>152.99</ele>
        <time>2020-09-17T14:45:32Z</time>
      </trkpt>
      <trkpt lat="49.65701" lon="4.99015">
        <ele>154.43</ele>
        <time>2020-09-17T14:45:53Z</time>
      </trkpt>
      <trkpt lat="49.65684" lon="4.99045">
        <ele>153.47</ele>
        <time>2020-09-17T14:46:17Z</time>
      </trkpt>
      <trkpt lat="49.6567" lon="4.99069">
        <ele>152.03</ele>
        <time>2020-09-17T14:46:38Z</time>
      </trkpt>
      <trkpt lat="49.65656" lon="4.9909">
        <ele>152.03</ele>
        <time>2020-09-17T14:46:55Z</time>
      </trkpt>
      <trkpt lat="49.65643" lon="4.99113">
        <ele>153.95</ele>
        <time>2020-09-17T14:47:13Z</time>
      </trkpt>
      <trkpt lat="49.65641" lon="4.99116">
        <ele>154.43</ele>
        <time>2020-09-17T14:47:16Z</time>
      </trkpt>
      <trkpt lat="49.65628" lon="4.99137">
        <ele>153.95</ele>
        <time>2020-09-17T14:47:33Z</time>
      </trkpt>
      <trkpt lat="49.65613" lon="4.99162">
        <ele>153.95</ele>
        <time>2020-09-17T14:47:54Z</time>
      </trkpt>
      <trkpt lat="49.65601" lon="4.99182">
        <ele>153.95</ele>
        <time>2020-09-17T14:48:12Z</time>
      </trkpt>
      <trkpt lat="49.6559" lon="4.99203">
        <ele>153.95</ele>
        <time>2020-09-17T14:48:28Z</time>
      </trkpt>
      <trkpt lat="49.65574" lon="4.9923">
        <ele>154.91</ele>
        <time>2020-09-17T14:48:49Z</time>
      </trkpt>
      <trkpt lat="49.65564" lon="4.99244">
        <ele>155.39</ele>
        <time>2020-09-17T14:49:01Z</time>
      </trkpt>
      <trkpt lat="49.65554" lon="4.99231">
        <ele>156.35</ele>
        <time>2020-09-17T14:49:19Z</time>
      </trkpt>
      <trkpt lat="49.65549" lon="4.99225">
        <ele>157.31</ele>
        <time>2020-09-17T14:49:34Z</time>
      </trkpt>
      <trkpt lat="49.65534" lon="4.99216">
        <ele>159.72</ele>
        <time>2020-09-17T14:49:50Z</time>
      </trkpt>
      <trkpt lat="49.65519" lon="4.99205">
        <ele>160.68</ele>
        <time>2020-09-17T14:50:06Z</time>
      </trkpt>
      <trkpt lat="49.65502" lon="4.99197">
        <ele>161.64</ele>
        <time>2020-09-17T14:50:21Z</time>
      </trkpt>
      <trkpt lat="49.65494" lon="4.99194">
        <ele>160.2</ele>
        <time>2020-09-17T14:50:28Z</time>
      </trkpt>
      <trkpt lat="49.65486" lon="4.99214">
        <ele>160.2</ele>
        <time>2020-09-17T14:50:42Z</time>
      </trkpt>
      <trkpt lat="49.65481" lon="4.99237">
        <ele>159.24</ele>
        <time>2020-09-17T14:50:56Z</time>
      </trkpt>
      <trkpt lat="49.65475" lon="4.99262">
        <ele>157.31</ele>
        <time>2020-09-17T14:51:13Z</time>
      </trkpt>
      <trkpt lat="49.65472" lon="4.99272">
        <ele>155.87</ele>
        <time>2020-09-17T14:51:20Z</time>
      </trkpt>
      <trkpt lat="49.65467" lon="4.99279">
        <ele>154.91</ele>
        <time>2020-09-17T14:51:26Z</time>
      </trkpt>
      <trkpt lat="49.65452" lon="4.99278">
        <ele>153.95</ele>
        <time>2020-09-17T14:51:44Z</time>
      </trkpt>
      <trkpt lat="49.6544" lon="4.9926">
        <ele>153.47</ele>
        <time>2020-09-17T14:52:00Z</time>
      </trkpt>
      <trkpt lat="49.65433" lon="4.9924">
        <ele>154.91</ele>
        <time>2020-09-17T14:52:13Z</time>
      </trkpt>
      <trkpt lat="49.65422" lon="4.99223">
        <ele>152.99</ele>
        <time>2020-09-17T14:52:29Z</time>
      </trkpt>
      <trkpt lat="49.65407" lon="4.99202">
        <ele>152.51</ele>
        <time>2020-09-17T14:52:46Z</time>
      </trkpt>
      <trkpt lat="49.65398" lon="4.99191">
        <ele>152.99</ele>
        <time>2020-09-17T14:52:56Z</time>
      </trkpt>
      <trkpt lat="49.65395" lon="4.99187">
        <ele>152.99</ele>
        <time>2020-09-17T14:52:59Z</time>
      </trkpt>
      <trkpt lat="49.65387" lon="4.99179">
        <ele>155.39</ele>
        <time>2020-09-17T14:53:07Z</time>
      </trkpt>
      <trkpt lat="49.65374" lon="4.99189">
        <ele>159.24</ele>
        <time>2020-09-17T14:53:18Z</time>
      </trkpt>
      <trkpt lat="49.6537" lon="4.99183">
        <ele>160.2</ele>
        <time>2020-09-17T14:53:24Z</time>
      </trkpt>
      <trkpt lat="49.65372" lon="4.99165">
        <ele>159.24</ele>
        <time>2020-09-17T14:53:36Z</time>
      </trkpt>
      <trkpt lat="49.65371" lon="4.99163">
        <ele>159.24</ele>
        <time>2020-09-17T14:53:37Z</time>
      </trkpt>
      <trkpt lat="49.65361" lon="4.99145">
        <ele>160.68</ele>
        <time>2020-09-17T14:53:54Z</time>
      </trkpt>
      <trkpt lat="49.65348" lon="4.99124">
        <ele>160.68</ele>
        <time>2020-09-17T14:54:11Z</time>
      </trkpt>
      <trkpt lat="49.65347" lon="4.99118">
        <ele>160.2</ele>
        <time>2020-09-17T14:54:15Z</time>
      </trkpt>
      <trkpt lat="49.65335" lon="4.99088">
        <ele>158.75</ele>
        <time>2020-09-17T14:54:35Z</time>
      </trkpt>
      <trkpt lat="49.6533" lon="4.9907">
        <ele>158.27</ele>
        <time>2020-09-17T14:54:51Z</time>
      </trkpt>
      <trkpt lat="49.65328" lon="4.9906">
        <ele>158.27</ele>
        <time>2020-09-17T14:54:57Z</time>
      </trkpt>
      <trkpt lat="49.65319" lon="4.99042">
        <ele>158.75</ele>
        <time>2020-09-17T14:55:09Z</time>
      </trkpt>
      <trkpt lat="49.65315" lon="4.99038">
        <ele>159.24</ele>
        <time>2020-09-17T14:55:13Z</time>
      </trkpt>
      <trkpt lat="49.65297" lon="4.99023">
        <ele>158.75</ele>
        <time>2020-09-17T14:55:30Z</time>
      </trkpt>
      <trkpt lat="49.65289" lon="4.9901">
        <ele>159.24</ele>
        <time>2020-09-17T14:55:41Z</time>
      </trkpt>
      <trkpt lat="49.65269" lon="4.98999">
        <ele>159.24</ele>
        <time>2020-09-17T14:55:57Z</time>
      </trkpt>
      <trkpt lat="49.65256" lon="4.98988">
        <ele>162.12</ele>
        <time>2020-09-17T14:56:10Z</time>
      </trkpt>
      <trkpt lat="49.6524" lon="4.98974">
        <ele>162.12</ele>
        <time>2020-09-17T14:56:26Z</time>
      </trkpt>
      <trkpt lat="49.65224" lon="4.98955">
        <ele>161.64</ele>
        <time>2020-09-17T14:56:42Z</time>
      </trkpt>
      <trkpt lat="49.65208" lon="4.98941">
        <ele>163.56</ele>
        <time>2020-09-17T14:56:58Z</time>
      </trkpt>
      <trkpt lat="49.65208" lon="4.98941">
        <ele>163.56</ele>
        <time>2020-09-17T14:57:03Z</time>
      </trkpt>
      <trkpt lat="49.65199" lon="4.98935">
        <ele>163.56</ele>
        <time>2020-09-17T14:57:12Z</time>
      </trkpt>
      <trkpt lat="49.65182" lon="4.9892">
        <ele>164.04</ele>
        <time>2020-09-17T14:57:29Z</time>
      </trkpt>
      <trkpt lat="49.6518" lon="4.98918">
        <ele>163.56</ele>
        <time>2020-09-17T14:57:31Z</time>
      </trkpt>
      <trkpt lat="49.65178" lon="4.98915">
        <ele>163.56</ele>
        <time>2020-09-17T14:57:33Z</time>
      </trkpt>
      <trkpt lat="49.65162" lon="4.98904">
        <ele>162.6</ele>
        <time>2020-09-17T14:57:49Z</time>
      </trkpt>
      <trkpt lat="49.65154" lon="4.98898">
        <ele>162.12</ele>
        <time>2020-09-17T14:57:57Z</time>
      </trkpt>
      <trkpt lat="49.65145" lon="4.98891">
        <ele>162.6</ele>
        <time>2020-09-17T14:58:05Z</time>
      </trkpt>
      <trkpt lat="49.65136" lon="4.9888">
        <ele>161.64</ele>
        <time>2020-09-17T14:58:17Z</time>
      </trkpt>
      <trkpt lat="49.6512" lon="4.98868">
        <ele>160.2</ele>
        <time>2020-09-17T14:58:32Z</time>
      </trkpt>
      <trkpt lat="49.65105" lon="4.98852">
        <ele>160.2</ele>
        <time>2020-09-17T14:58:49Z</time>
      </trkpt>
      <trkpt lat="49.65096" lon="4.98848">
        <ele>160.2</ele>
        <time>2020-09-17T14:58:58Z</time>
      </trkpt>
      <trkpt lat="49.65092" lon="4.98841">
        <ele>160.2</ele>
        <time>2020-09-17T14:59:03Z</time>
      </trkpt>
      <trkpt lat="49.65078" lon="4.9882">
        <ele>158.27</ele>
        <time>2020-09-17T14:59:22Z</time>
      </trkpt>
      <trkpt lat="49.65077" lon="4.9882">
        <ele>157.79</ele>
        <time>2020-09-17T14:59:23Z</time>
      </trkpt>
      <trkpt lat="49.65058" lon="4.98798">
        <ele>156.35</ele>
        <time>2020-09-17T14:59:43Z</time>
      </trkpt>
      <trkpt lat="49.65051" lon="4.98792">
        <ele>156.35</ele>
        <time>2020-09-17T14:59:51Z</time>
      </trkpt>
      <trkpt lat="49.65034" lon="4.98775">
        <ele>155.39</ele>
        <time>2020-09-17T15:00:09Z</time>
      </trkpt>
      <trkpt lat="49.65016" lon="4.98756">
        <ele>154.91</ele>
        <time>2020-09-17T15:00:30Z</time>
      </trkpt>
      <trkpt lat="49.6501" lon="4.9875">
        <ele>154.91</ele>
        <time>2020-09-17T15:00:38Z</time>
      </trkpt>
      <trkpt lat="49.65007" lon="4.98747">
        <ele>154.43</ele>
        <time>2020-09-17T15:00:41Z</time>
      </trkpt>
      <trkpt lat="49.64992" lon="4.98732">
        <ele>153.95</ele>
        <time>2020-09-17T15:00:57Z</time>
      </trkpt>
      <trkpt lat="49.64976" lon="4.98719">
        <ele>152.99</ele>
        <time>2020-09-17T15:01:13Z</time>
      </trkpt>
      <trkpt lat="49.64967" lon="4.98709">
        <ele>152.99</ele>
        <time>2020-09-17T15:01:25Z</time>
      </trkpt>
      <trkpt lat="49.6495" lon="4.98693">
        <ele>153.47</ele>
        <time>2020-09-17T15:01:43Z</time>
      </trkpt>
      <trkpt lat="49.64935" lon="4.9868">
        <ele>153.95</ele>
        <time>2020-09-17T15:01:59Z</time>
      </trkpt>
      <trkpt lat="49.64917" lon="4.98671">
        <ele>156.83</ele>
        <time>2020-09-17T15:02:15Z</time>
      </trkpt>
      <trkpt lat="49.64903" lon="4.98662">
        <ele>159.24</ele>
        <time>2020-09-17T15:02:30Z</time>
      </trkpt>
      <trkpt lat="49.64898" lon="4.9866">
        <ele>159.72</ele>
        <time>2020-09-17T15:02:34Z</time>
      </trkpt>
      <trkpt lat="49.64884" lon="4.98649">
        <ele>159.72</ele>
        <time>2020-09-17T15:02:48Z</time>
      </trkpt>
      <trkpt lat="49.64868" lon="4.9864">
        <ele>158.27</ele>
        <time>2020-09-17T15:03:03Z</time>
      </trkpt>
      <trkpt lat="49.64847" lon="4.98627">
        <ele>158.27</ele>
        <time>2020-09-17T15:03:24Z</time>
      </trkpt>
      <trkpt lat="49.64841" lon="4.98622">
        <ele>158.75</ele>
        <time>2020-09-17T15:03:30Z</time>
      </trkpt>
      <trkpt lat="49.64834" lon="4.98616">
        <ele>159.72</ele>
        <time>2020-09-17T15:03:37Z</time>
      </trkpt>
      <trkpt lat="49.64815" lon="4.98604">
        <ele>160.2</ele>
        <time>2020-09-17T15:03:56Z</time>
      </trkpt>
      <trkpt lat="49.64798" lon="4.98597">
        <ele>160.2</ele>
        <time>2020-09-17T15:04:16Z</time>
      </trkpt>
      <trkpt lat="49.64779" lon="4.98588">
        <ele>162.12</ele>
        <time>2020-09-17T15:04:35Z</time>
      </trkpt>
      <trkpt lat="49.6476" lon="4.98576">
        <ele>164.52</ele>
        <time>2020-09-17T15:04:53Z</time>
      </trkpt>
      <trkpt lat="49.64738" lon="4.98561">
        <ele>166.45</ele>
        <time>2020-09-17T15:05:13Z</time>
      </trkpt>
      <trkpt lat="49.64723" lon="4.98553">
        <ele>165</ele>
        <time>2020-09-17T15:05:28Z</time>
      </trkpt>
      <trkpt lat="49.64707" lon="4.98547">
        <ele>164.04</ele>
        <time>2020-09-17T15:05:45Z</time>
      </trkpt>
      <trkpt lat="49.64694" lon="4.98539">
        <ele>165</ele>
        <time>2020-09-17T15:05:57Z</time>
      </trkpt>
      <trkpt lat="49.64674" lon="4.98526">
        <ele>166.45</ele>
        <time>2020-09-17T15:06:16Z</time>
      </trkpt>
      <trkpt lat="49.64651" lon="4.98511">
        <ele>168.85</ele>
        <time>2020-09-17T15:06:36Z</time>
      </trkpt>
      <trkpt lat="49.64636" lon="4.98504">
        <ele>167.89</ele>
        <time>2020-09-17T15:06:51Z</time>
      </trkpt>
      <trkpt lat="49.64614" lon="4.98497">
        <ele>167.41</ele>
        <time>2020-09-17T15:07:14Z</time>
      </trkpt>
      <trkpt lat="49.6461" lon="4.98496">
        <ele>167.89</ele>
        <time>2020-09-17T15:07:18Z</time>
      </trkpt>
      <trkpt lat="49.64597" lon="4.98487">
        <ele>169.81</ele>
        <time>2020-09-17T15:07:30Z</time>
      </trkpt>
      <trkpt lat="49.64593" lon="4.98487">
        <ele>170.77</ele>
        <time>2020-09-17T15:07:43Z</time>
      </trkpt>
      <trkpt lat="49.64594" lon="4.98488">
        <ele>170.77</ele>
        <time>2020-09-17T15:08:02Z</time>
      </trkpt>
      <trkpt lat="49.64595" lon="4.98489">
        <ele>169.81</ele>
        <time>2020-09-17T15:08:30Z</time>
      </trkpt>
      <trkpt lat="49.64597" lon="4.98489">
        <ele>168.37</ele>
        <time>2020-09-17T15:09:04Z</time>
      </trkpt>
      <trkpt lat="49.64597" lon="4.98486">
        <ele>165.96</ele>
        <time>2020-09-17T15:09:29Z</time>
      </trkpt>
      <trkpt lat="49.64597" lon="4.98484">
        <ele>165.48</ele>
        <time>2020-09-17T15:09:58Z</time>
      </trkpt>
      <trkpt lat="49.64596" lon="4.98489">
        <ele>163.08</ele>
        <time>2020-09-17T15:10:19Z</time>
      </trkpt>
      <trkpt lat="49.64596" lon="4.98488">
        <ele>162.12</ele>
        <time>2020-09-17T15:10:41Z</time>
      </trkpt>
      <trkpt lat="49.64596" lon="4.98488">
        <ele>160.2</ele>
        <time>2020-09-17T15:11:17Z</time>
      </trkpt>
      <trkpt lat="49.64596" lon="4.98488">
        <ele>160.2</ele>
        <time>2020-09-17T15:11:44Z</time>
      </trkpt>
      <trkpt lat="49.64597" lon="4.98489">
        <ele>160.2</ele>
        <time>2020-09-17T15:12:26Z</time>
      </trkpt>
      <trkpt lat="49.64596" lon="4.98489">
        <ele>160.2</ele>
        <time>2020-09-17T15:12:57Z</time>
      </trkpt>
      <trkpt lat="49.64596" lon="4.9849">
        <ele>160.2</ele>
        <time>2020-09-17T15:13:34Z</time>
      </trkpt>
      <trkpt lat="49.64596" lon="4.9849">
        <ele>160.2</ele>
        <time>2020-09-17T15:14:02Z</time>
      </trkpt>
      <trkpt lat="49.64596" lon="4.98491">
        <ele>160.68</ele>
        <time>2020-09-17T15:14:36Z</time>
      </trkpt>
      <trkpt lat="49.64588" lon="4.98484">
        <ele>161.16</ele>
        <time>2020-09-17T15:14:51Z</time>
      </trkpt>
      <trkpt lat="49.64573" lon="4.98475">
        <ele>159.72</ele>
        <time>2020-09-17T15:15:10Z</time>
      </trkpt>
      <trkpt lat="49.64555" lon="4.98464">
        <ele>160.2</ele>
        <time>2020-09-17T15:15:26Z</time>
      </trkpt>
      <trkpt lat="49.64541" lon="4.98453">
        <ele>159.72</ele>
        <time>2020-09-17T15:15:42Z</time>
      </trkpt>
      <trkpt lat="49.64524" lon="4.98445">
        <ele>158.27</ele>
        <time>2020-09-17T15:16:01Z</time>
      </trkpt>
      <trkpt lat="49.64509" lon="4.98437">
        <ele>157.79</ele>
        <time>2020-09-17T15:16:16Z</time>
      </trkpt>
      <trkpt lat="49.64491" lon="4.98427">
        <ele>158.75</ele>
        <time>2020-09-17T15:16:33Z</time>
      </trkpt>
      <trkpt lat="49.64473" lon="4.98414">
        <ele>160.68</ele>
        <time>2020-09-17T15:16:51Z</time>
      </trkpt>
      <trkpt lat="49.64458" lon="4.98402">
        <ele>158.75</ele>
        <time>2020-09-17T15:17:07Z</time>
      </trkpt>
      <trkpt lat="49.64436" lon="4.98389">
        <ele>157.31</ele>
        <time>2020-09-17T15:17:29Z</time>
      </trkpt>
      <trkpt lat="49.64418" lon="4.98379">
        <ele>156.83</ele>
        <time>2020-09-17T15:17:46Z</time>
      </trkpt>
      <trkpt lat="49.64414" lon="4.98376">
        <ele>156.83</ele>
        <time>2020-09-17T15:17:50Z</time>
      </trkpt>
      <trkpt lat="49.64399" lon="4.98365">
        <ele>156.35</ele>
        <time>2020-09-17T15:18:06Z</time>
      </trkpt>
      <trkpt lat="49.64383" lon="4.98352">
        <ele>155.39</ele>
        <time>2020-09-17T15:18:25Z</time>
      </trkpt>
      <trkpt lat="49.64367" lon="4.98341">
        <ele>154.43</ele>
        <time>2020-09-17T15:18:44Z</time>
      </trkpt>
      <trkpt lat="49.64348" lon="4.98328">
        <ele>155.39</ele>
        <time>2020-09-17T15:19:03Z</time>
      </trkpt>
      <trkpt lat="49.64331" lon="4.98314">
        <ele>156.83</ele>
        <time>2020-09-17T15:19:21Z</time>
      </trkpt>
      <trkpt lat="49.64315" lon="4.98302">
        <ele>158.75</ele>
        <time>2020-09-17T15:19:39Z</time>
      </trkpt>
      <trkpt lat="49.64296" lon="4.98287">
        <ele>161.64</ele>
        <time>2020-09-17T15:19:58Z</time>
      </trkpt>
      <trkpt lat="49.64282" lon="4.98273">
        <ele>165.96</ele>
        <time>2020-09-17T15:20:14Z</time>
      </trkpt>
      <trkpt lat="49.64268" lon="4.98262">
        <ele>166.93</ele>
        <time>2020-09-17T15:20:30Z</time>
      </trkpt>
      <trkpt lat="49.64251" lon="4.9825">
        <ele>167.89</ele>
        <time>2020-09-17T15:20:51Z</time>
      </trkpt>
      <trkpt lat="49.6424" lon="4.98236">
        <ele>168.37</ele>
        <time>2020-09-17T15:21:06Z</time>
      </trkpt>
      <trkpt lat="49.6422" lon="4.98219">
        <ele>166.93</ele>
        <time>2020-09-17T15:21:26Z</time>
      </trkpt>
      <trkpt lat="49.642" lon="4.982">
        <ele>163.56</ele>
        <time>2020-09-17T15:21:47Z</time>
      </trkpt>
      <trkpt lat="49.64181" lon="4.98181">
        <ele>161.64</ele>
        <time>2020-09-17T15:22:06Z</time>
      </trkpt>
      <trkpt lat="49.64166" lon="4.9817">
        <ele>160.68</ele>
        <time>2020-09-17T15:22:24Z</time>
      </trkpt>
      <trkpt lat="49.64163" lon="4.98168">
        <ele>160.68</ele>
        <time>2020-09-17T15:22:28Z</time>
      </trkpt>
      <trkpt lat="49.6415" lon="4.98153">
        <ele>162.6</ele>
        <time>2020-09-17T15:22:44Z</time>
      </trkpt>
      <trkpt lat="49.64131" lon="4.98134">
        <ele>164.52</ele>
        <time>2020-09-17T15:23:02Z</time>
      </trkpt>
      <trkpt lat="49.64118" lon="4.9812">
        <ele>166.45</ele>
        <time>2020-09-17T15:23:19Z</time>
      </trkpt>
      <trkpt lat="49.64101" lon="4.98102">
        <ele>167.89</ele>
        <time>2020-09-17T15:23:36Z</time>
      </trkpt>
      <trkpt lat="49.64084" lon="4.98088">
        <ele>167.89</ele>
        <time>2020-09-17T15:23:56Z</time>
      </trkpt>
      <trkpt lat="49.64082" lon="4.98087">
        <ele>167.89</ele>
        <time>2020-09-17T15:23:57Z</time>
      </trkpt>
      <trkpt lat="49.64061" lon="4.98067">
        <ele>165.48</ele>
        <time>2020-09-17T15:24:17Z</time>
      </trkpt>
      <trkpt lat="49.64044" lon="4.98053">
        <ele>163.56</ele>
        <time>2020-09-17T15:24:36Z</time>
      </trkpt>
      <trkpt lat="49.64025" lon="4.98032">
        <ele>161.16</ele>
        <time>2020-09-17T15:24:54Z</time>
      </trkpt>
      <trkpt lat="49.64009" lon="4.98018">
        <ele>159.24</ele>
        <time>2020-09-17T15:25:12Z</time>
      </trkpt>
      <trkpt lat="49.63987" lon="4.97993">
        <ele>157.79</ele>
        <time>2020-09-17T15:25:30Z</time>
      </trkpt>
      <trkpt lat="49.63973" lon="4.97982">
        <ele>156.83</ele>
        <time>2020-09-17T15:25:46Z</time>
      </trkpt>
      <trkpt lat="49.63956" lon="4.97968">
        <ele>156.83</ele>
        <time>2020-09-17T15:26:05Z</time>
      </trkpt>
      <trkpt lat="49.63938" lon="4.97951">
        <ele>156.83</ele>
        <time>2020-09-17T15:26:23Z</time>
      </trkpt>
      <trkpt lat="49.63924" lon="4.97934">
        <ele>156.35</ele>
        <time>2020-09-17T15:26:41Z</time>
      </trkpt>
      <trkpt lat="49.63908" lon="4.97922">
        <ele>154.91</ele>
        <time>2020-09-17T15:27:00Z</time>
      </trkpt>
      <trkpt lat="49.63884" lon="4.97897">
        <ele>154.43</ele>
        <time>2020-09-17T15:27:20Z</time>
      </trkpt>
      <trkpt lat="49.63866" lon="4.97882">
        <ele>155.39</ele>
        <time>2020-09-17T15:27:37Z</time>
      </trkpt>
      <trkpt lat="49.63853" lon="4.97869">
        <ele>153.95</ele>
        <time>2020-09-17T15:27:55Z</time>
      </trkpt>
      <trkpt lat="49.63834" lon="4.9785">
        <ele>155.39</ele>
        <time>2020-09-17T15:28:12Z</time>
      </trkpt>
      <trkpt lat="49.63814" lon="4.97832">
        <ele>157.79</ele>
        <time>2020-09-17T15:28:33Z</time>
      </trkpt>
      <trkpt lat="49.63796" lon="4.97811">
        <ele>160.68</ele>
        <time>2020-09-17T15:28:51Z</time>
      </trkpt>
      <trkpt lat="49.63779" lon="4.97796">
        <ele>160.2</ele>
        <time>2020-09-17T15:29:11Z</time>
      </trkpt>
      <trkpt lat="49.63758" lon="4.9778">
        <ele>161.64</ele>
        <time>2020-09-17T15:29:29Z</time>
      </trkpt>
      <trkpt lat="49.63744" lon="4.97765">
        <ele>162.6</ele>
        <time>2020-09-17T15:29:46Z</time>
      </trkpt>
      <trkpt lat="49.63728" lon="4.97752">
        <ele>162.6</ele>
        <time>2020-09-17T15:30:02Z</time>
      </trkpt>
      <trkpt lat="49.63713" lon="4.97738">
        <ele>163.08</ele>
        <time>2020-09-17T15:30:17Z</time>
      </trkpt>
      <trkpt lat="49.63705" lon="4.97733">
        <ele>162.12</ele>
        <time>2020-09-17T15:30:32Z</time>
      </trkpt>
      <trkpt lat="49.63691" lon="4.97726">
        <ele>159.72</ele>
        <time>2020-09-17T15:30:46Z</time>
      </trkpt>
      <trkpt lat="49.63679" lon="4.97717">
        <ele>159.24</ele>
        <time>2020-09-17T15:30:59Z</time>
      </trkpt>
      <trkpt lat="49.6367" lon="4.97711">
        <ele>159.72</ele>
        <time>2020-09-17T15:31:09Z</time>
      </trkpt>
      <trkpt lat="49.63654" lon="4.97698">
        <ele>160.2</ele>
        <time>2020-09-17T15:31:27Z</time>
      </trkpt>
      <trkpt lat="49.63648" lon="4.97695">
        <ele>160.2</ele>
        <time>2020-09-17T15:31:34Z</time>
      </trkpt>
      <trkpt lat="49.63632" lon="4.97681">
        <ele>162.6</ele>
        <time>2020-09-17T15:31:51Z</time>
      </trkpt>
      <trkpt lat="49.63615" lon="4.97664">
        <ele>165.48</ele>
        <time>2020-09-17T15:32:09Z</time>
      </trkpt>
      <trkpt lat="49.63605" lon="4.97665">
        <ele>166.45</ele>
        <time>2020-09-17T15:32:24Z</time>
      </trkpt>
      <trkpt lat="49.63604" lon="4.97665">
        <ele>166.45</ele>
        <time>2020-09-17T15:32:26Z</time>
      </trkpt>
      <trkpt lat="49.63594" lon="4.97671">
        <ele>168.37</ele>
        <time>2020-09-17T15:32:38Z</time>
      </trkpt>
      <trkpt lat="49.6359" lon="4.97675">
        <ele>169.33</ele>
        <time>2020-09-17T15:32:43Z</time>
      </trkpt>
      <trkpt lat="49.63587" lon="4.97677">
        <ele>170.29</ele>
        <time>2020-09-17T15:32:46Z</time>
      </trkpt>
      <trkpt lat="49.63579" lon="4.97689">
        <ele>169.81</ele>
        <time>2020-09-17T15:32:58Z</time>
      </trkpt>
      <trkpt lat="49.63566" lon="4.97712">
        <ele>169.81</ele>
        <time>2020-09-17T15:33:17Z</time>
      </trkpt>
      <trkpt lat="49.63547" lon="4.97745">
        <ele>167.41</ele>
        <time>2020-09-17T15:33:38Z</time>
      </trkpt>
      <trkpt lat="49.63537" lon="4.97771">
        <ele>167.89</ele>
        <time>2020-09-17T15:33:57Z</time>
      </trkpt>
      <trkpt lat="49.6352" lon="4.97792">
        <ele>166.93</ele>
        <time>2020-09-17T15:34:16Z</time>
      </trkpt>
      <trkpt lat="49.63506" lon="4.97806">
        <ele>167.41</ele>
        <time>2020-09-17T15:34:33Z</time>
      </trkpt>
      <trkpt lat="49.63492" lon="4.97822">
        <ele>168.37</ele>
        <time>2020-09-17T15:34:49Z</time>
      </trkpt>
      <trkpt lat="49.6348" lon="4.97844">
        <ele>170.29</ele>
        <time>2020-09-17T15:35:05Z</time>
      </trkpt>
      <trkpt lat="49.63471" lon="4.97854">
        <ele>170.77</ele>
        <time>2020-09-17T15:35:16Z</time>
      </trkpt>
      <trkpt lat="49.63457" lon="4.97873">
        <ele>173.17</ele>
        <time>2020-09-17T15:35:32Z</time>
      </trkpt>
      <trkpt lat="49.63443" lon="4.97891">
        <ele>172.69</ele>
        <time>2020-09-17T15:35:50Z</time>
      </trkpt>
      <trkpt lat="49.63426" lon="4.97898">
        <ele>174.14</ele>
        <time>2020-09-17T15:36:07Z</time>
      </trkpt>
      <trkpt lat="49.63418" lon="4.97904">
        <ele>177.02</ele>
        <time>2020-09-17T15:36:17Z</time>
      </trkpt>
      <trkpt lat="49.63402" lon="4.97913">
        <ele>178.94</ele>
        <time>2020-09-17T15:36:34Z</time>
      </trkpt>
      <trkpt lat="49.63394" lon="4.97923">
        <ele>176.06</ele>
        <time>2020-09-17T15:36:44Z</time>
      </trkpt>
      <trkpt lat="49.63385" lon="4.97937">
        <ele>176.54</ele>
        <time>2020-09-17T15:36:56Z</time>
      </trkpt>
      <trkpt lat="49.63388" lon="4.97959">
        <ele>177.02</ele>
        <time>2020-09-17T15:37:11Z</time>
      </trkpt>
      <trkpt lat="49.63396" lon="4.97976">
        <ele>177.02</ele>
        <time>2020-09-17T15:37:27Z</time>
      </trkpt>
      <trkpt lat="49.63398" lon="4.97979">
        <ele>177.5</ele>
        <time>2020-09-17T15:37:30Z</time>
      </trkpt>
      <trkpt lat="49.63408" lon="4.97999">
        <ele>178.94</ele>
        <time>2020-09-17T15:37:45Z</time>
      </trkpt>
      <trkpt lat="49.63417" lon="4.98019">
        <ele>179.42</ele>
        <time>2020-09-17T15:38:01Z</time>
      </trkpt>
      <trkpt lat="49.63426" lon="4.98035">
        <ele>180.87</ele>
        <time>2020-09-17T15:38:15Z</time>
      </trkpt>
      <trkpt lat="49.63443" lon="4.98048">
        <ele>183.27</ele>
        <time>2020-09-17T15:38:33Z</time>
      </trkpt>
      <trkpt lat="49.63449" lon="4.98054">
        <ele>184.23</ele>
        <time>2020-09-17T15:38:46Z</time>
      </trkpt>
      <trkpt lat="49.63456" lon="4.98054">
        <ele>184.71</ele>
        <time>2020-09-17T15:39:04Z</time>
      </trkpt>
      <trkpt lat="49.63453" lon="4.98049">
        <ele>182.31</ele>
        <time>2020-09-17T15:39:15Z</time>
      </trkpt>
    </trkseg>
  </trk>
</gpx>